Data for 01/19/2013

Time Sea-Level Adjusted Pressure Absolute Pressure Temperature Relative Humidity Dew Point Precipitation   
(mb) (inHg) (mb) (inHg) (C) (F) (%) (C) (F) (mm) (in)
00:01 1023 30.21 852 25.16 -0.6 31 42 -12.1 10.3 0 0
00:02 1023 30.21 852 25.16 -0.5 31 41 -12.2 10.1 0 0
00:03 1023 30.21 852 25.16 -0.4 31.3 41 -12.1 10.2 0 0
00:04 1023 30.21 852 25.16 -0.2 31.7 41 -11.9 10.6 0 0
00:05 1023 30.21 852 25.16 -0.1 31.8 41 -11.9 10.6 0 0
00:06 1023 30.21 852 25.16 -0.1 31.8 42 -11.7 10.9 0 0
00:07 1023 30.21 852 25.16 -0.2 31.7 42 -11.6 11 0 0
00:08 1023 30.21 852 25.16 -0.2 31.7 42 -11.6 11.1 0 0
00:09 1023 30.21 852 25.16 -0.2 31.6 43 -11.4 11.5 0 0
00:10 1023 30.21 852 25.16 -0.3 31.4 43 -11.5 11.3 0 0
00:11 1023 30.21 852 25.16 -0.2 31.6 42 -11.6 11.2 0 0
00:12 1023 30.21 852 25.16 -0.2 31.7 43 -11.4 11.5 0 0
00:13 1023 30.21 852 25.16 -0.2 31.6 43 -11.3 11.6 0 0
00:14 1023 30.21 852 25.16 -0.3 31.4 44 -11 12.1 0 0
00:15 1023 30.21 852 25.16 -0.5 31.2 44 -11.2 11.8 0 0
00:16 1023 30.21 852 25.16 -0.4 31.3 43 -11.4 11.5 0 0
00:17 1023 30.21 852 25.16 -0.3 31.5 42 -11.6 11.2 0 0
00:18 1023 30.21 852 25.16 -0.2 31.7 42 -11.6 11.1 0 0
00:19 1023 30.21 852 25.16 -0.1 31.8 42 -11.6 11.2 0 0
00:20 1023 30.21 852 25.16 -0 32 41 -11.6 11.1 0 0
00:21 1023 30.21 852 25.16 0 32 42 -11.6 11.2 0 0
00:22 1023 30.21 852 25.16 0 32 42 -11.6 11.2 0 0
00:23 1023 30.21 852 25.16 0 32.1 42 -11.3 11.7 0 0
00:24 1023 30.21 852 25.16 -0.1 31.9 43 -11.1 12 0 0
00:25 1023 30.21 852 25.16 -0.3 31.5 44 -11.2 11.9 0 0
00:26 1023 30.21 852 25.16 -0.4 31.2 45 -11 12.2 0 0
00:27 1023 30.21 852 25.16 -0.7 30.8 45 -11.1 12 0 0
00:28 1023 30.21 852 25.16 -0.8 30.6 46 -11.1 12 0 0
00:29 1023 30.21 852 25.16 -0.9 30.4 46 -11.2 11.9 0 0
00:30 1023 30.21 852 25.16 -0.9 30.4 46 -11.1 12 0 0
00:31 1023 30.21 852 25.16 -0.9 30.5 44 -11.6 11.1 0 0
00:32 1023 30.21 852 25.16 -0.6 30.9 44 -11.4 11.5 0 0
00:33 1023 30.21 852 25.16 -0.6 31 45 -11.1 12 0 0
00:34 1023 30.21 852 25.16 -0.8 30.6 46 -11 12.1 0 0
00:35 1023 30.21 852 25.16 -1 30.2 46 -11.2 11.9 0 0
00:36 1023 30.21 852 25.16 -1.1 30 48 -10.9 12.4 0 0
00:37 1023 30.21 852 25.16 -1.4 29.5 48 -11.1 12.1 0 0
00:38 1023 30.21 852 25.16 -1.5 29.4 49 -11 12.3 0 0
00:39 1023 30.21 852 25.16 -1.7 29 49 -11 12.2 0 0
00:40 1023 30.21 852 25.16 -2 28.4 50 -11.2 11.8 0 0
00:41 1023 30.21 852 25.16 -2.2 28.1 50 -11.4 11.5 0 0
00:42 1023 30.21 852 25.16 -2.2 28.1 50 -11.3 11.6 0 0
00:43 1023 30.21 852 25.16 -2.2 28 50 -11.3 11.7 0 0
00:44 1023 30.21 852 25.16 -2.3 27.8 50 -11.4 11.5 0 0
00:45 1023 30.21 852 25.16 -2.3 27.8 49 -11.7 11 0 0
00:46 1023 30.21 853 25.19 -2.1 28.2 48 -11.9 10.6 0 0
00:47 1023 30.21 853 25.19 -1.9 28.6 47 -11.8 10.8 0 0
00:48 1023 30.21 853 25.19 -1.7 28.9 47 -11.5 11.3 0 0
00:49 1023 30.21 853 25.19 -1.9 28.7 48 -11.4 11.4 0 0
00:50 1023 30.21 853 25.19 -2 28.4 48 -11.7 10.9 0 0
00:51 1023 30.21 853 25.19 -1.9 28.5 46 -12 10.5 0 0
00:52 1024 30.24 853 25.19 -1.7 29 45 -12.1 10.2 0 0
00:53 1024 30.24 853 25.19 -1.4 29.5 43 -12.4 9.7 0 0
00:54 1024 30.24 853 25.19 -1.1 30 41 -12.7 9.2 0 0
00:55 1024 30.24 853 25.19 -0.8 30.6 41 -12.5 9.4 0 0
00:56 1024 30.24 853 25.19 -0.5 31.1 40 -12.6 9.4 0 0
00:57 1024 30.24 853 25.19 -0.4 31.3 39 -12.6 9.3 0 0
00:58 1024 30.24 853 25.19 -0.2 31.7 38 -12.8 9 0 0
00:59 1024 30.24 853 25.19 0 32 38 -12.7 9.1 0 0
01:00 1024 30.24 853 25.19 0 32 37 -12.9 8.9 0 0
01:01 1024 30.24 853 25.19 0.1 32.3 37 -12.8 8.9 0 0
01:02 1024 30.24 853 25.19 0.2 32.4 37 -12.9 8.8 0 0
01:03 1024 30.24 853 25.19 0.4 32.7 37 -12.9 8.8 0 0
01:04 1024 30.24 853 25.19 0.5 32.8 37 -12.7 9.1 0 0
01:05 1024 30.24 853 25.19 0.4 32.8 37 -12.7 9.2 0 0
01:06 1024 30.24 853 25.19 0.4 32.7 37 -12.8 9 0 0
01:07 1024 30.24 853 25.19 0.4 32.7 37 -12.8 9 0 0
01:08 1024 30.24 853 25.19 0.4 32.6 37 -12.7 9.1 0 0
01:09 1024 30.24 853 25.19 0.2 32.4 37 -12.9 8.8 0 0
01:10 1024 30.24 853 25.19 0.1 32.1 37 -12.9 8.8 0 0
01:11 1024 30.24 853 25.19 -0.1 31.9 37 -13 8.6 0 0
01:12 1024 30.24 853 25.19 -0 32 37 -13.1 8.4 0 0
01:13 1024 30.24 853 25.19 0.2 32.3 36 -13.2 8.3 0 0
01:14 1024 30.24 853 25.19 0.3 32.5 36 -13.2 8.2 0 0
01:15 1024 30.24 853 25.19 0.4 32.8 35 -13.2 8.2 0 0
01:16 1024 30.24 853 25.19 0.6 33 35 -13.2 8.2 0 0
01:17 1024 30.24 853 25.19 0.7 33.2 35 -13.2 8.3 0 0
01:18 1024 30.24 853 25.19 0.7 33.3 35 -13.1 8.4 0 0
01:19 1024 30.24 853 25.19 0.7 33.3 35 -13.1 8.4 0 0
01:20 1024 30.24 853 25.19 0.7 33.2 35 -13.2 8.3 0 0
01:21 1024 30.24 853 25.19 0.6 33.1 35 -13.2 8.2 0 0
01:22 1024 30.24 853 25.19 0.7 33.2 35 -13.2 8.2 0 0
01:23 1024 30.24 853 25.19 0.7 33.3 35 -13.2 8.3 0 0
01:24 1024 30.24 853 25.19 0.7 33.2 35 -13.3 8.1 0 0
01:25 1024 30.24 853 25.19 0.8 33.4 34 -13.2 8.2 0 0
01:26 1024 30.24 853 25.19 0.8 33.4 35 -13.2 8.3 0 0
01:27 1024 30.24 853 25.19 0.6 33.1 35 -13.1 8.4 0 0
01:28 1024 30.24 853 25.19 0.5 32.8 36 -13.1 8.3 0 0
01:29 1024 30.24 853 25.19 0.3 32.5 36 -13.1 8.3 0 0
01:30 1024 30.24 853 25.19 0.2 32.3 36 -13.2 8.3 0 0
01:31 1024 30.24 853 25.19 0.2 32.3 36 -13.2 8.2 0 0
01:32 1024 30.24 853 25.19 0.2 32.4 36 -13.2 8.2 0 0
01:33 1024 30.24 853 25.19 0.2 32.3 36 -13.2 8.3 0 0
01:34 1024 30.24 853 25.19 0.2 32.3 36 -13.3 8.1 0 0
01:35 1024 30.24 853 25.19 0.2 32.4 36 -13.3 8.1 0 0
01:36 1024 30.24 853 25.19 0.3 32.5 35 -13.3 8 0 0
01:37 1024 30.24 853 25.19 0.3 32.6 35 -13.4 7.9 0 0
01:38 1024 30.24 853 25.19 0.4 32.8 35 -13.5 7.8 0 0
01:39 1024 30.24 853 25.19 0.6 33.1 34 -13.5 7.8 0 0
01:40 1024 30.24 853 25.19 0.8 33.4 34 -13.5 7.6 0 0
01:41 1024 30.24 853 25.19 1 33.8 33 -13.5 7.7 0 0
01:42 1024 30.24 853 25.19 1.1 34 33 -13.5 7.7 0 0
01:43 1024 30.24 853 25.19 1.1 33.9 33 -13.5 7.6 0 0
01:44 1024 30.24 854 25.22 1 33.8 33 -13.5 7.7 0 0
01:45 1024 30.24 854 25.22 1 33.8 33 -13.6 7.5 0 0
01:46 1024 30.24 854 25.22 1.1 34 33 -13.5 7.6 0 0
01:47 1024 30.24 854 25.22 1.1 34.1 33 -13.6 7.6 0 0
01:48 1024 30.24 854 25.22 1.2 34.2 33 -13.5 7.6 0 0
01:49 1024 30.24 854 25.22 1.3 34.4 32 -13.6 7.6 0 0
01:50 1024 30.24 854 25.22 1.3 34.4 32 -13.5 7.6 0 0
01:51 1024 30.24 854 25.22 1.3 34.3 32 -13.5 7.6 0 0
01:52 1024 30.24 854 25.22 1.2 34.2 32 -13.6 7.5 0 0
01:53 1024 30.24 854 25.22 1 33.8 33 -13.5 7.7 0 0
01:54 1024 30.24 853 25.19 0.8 33.5 33 -13.6 7.6 0 0
01:55 1024 30.24 854 25.22 0.8 33.5 33 -13.6 7.4 0 0
01:56 1024 30.24 854 25.22 1 33.7 33 -13.6 7.6 0 0
01:57 1024 30.24 854 25.22 1 33.7 33 -13.5 7.7 0 0
01:58 1024 30.24 854 25.22 0.8 33.5 34 -13.5 7.7 0 0
01:59 1024 30.24 854 25.22 0.7 33.2 34 -13.4 7.9 0 0
02:00 1024 30.24 854 25.22 0.5 32.9 35 -13.3 8.1 0 0
02:01 1024 30.24 854 25.22 0.4 32.6 36 -13.2 8.2 0 0
02:02 1024 30.24 854 25.22 0.2 32.4 36 -13.3 8 0 0
02:03 1024 30.24 854 25.22 0.1 32.2 36 -13.4 7.9 0 0
02:04 1024 30.24 854 25.22 -0.1 31.8 36 -13.4 7.8 0 0
02:05 1024 30.24 854 25.22 -0.3 31.4 37 -13.5 7.7 0 0
02:06 1024 30.24 854 25.22 -0.7 30.8 38 -13.5 7.7 0 0
02:07 1024 30.24 854 25.22 -0.9 30.3 38 -13.4 7.8 0 0
02:08 1024 30.24 854 25.22 -1 30.2 39 -13.4 7.8 0 0
02:09 1025 30.27 854 25.22 -1.1 29.9 38 -13.7 7.3 0 0
02:10 1025 30.27 854 25.22 -1.5 29.3 40 -13.4 7.9 0 0
02:11 1025 30.27 854 25.22 -1.7 28.9 41 -13.5 7.7 0 0
02:12 1025 30.27 854 25.22 -1.9 28.6 41 -13.4 7.9 0 0
02:13 1025 30.27 854 25.22 -2.1 28.3 42 -13.4 7.8 0 0
02:14 1025 30.27 854 25.22 -2.1 28.3 42 -13.4 7.9 0 0
02:15 1025 30.27 854 25.22 -2.1 28.2 42 -13.4 8 0 0
02:16 1025 30.27 854 25.22 -2 28.3 42 -13.3 8.1 0 0
02:17 1025 30.27 854 25.22 -2 28.4 42 -13.3 8 0 0
02:18 1025 30.27 854 25.22 -2 28.5 42 -13.2 8.2 0 0
02:19 1025 30.27 854 25.22 -1.9 28.5 42 -13.3 8 0 0
02:20 1025 30.27 854 25.22 -1.9 28.6 42 -13.2 8.2 0 0
02:21 1025 30.27 854 25.22 -1.9 28.6 42 -13.2 8.2 0 0
02:22 1025 30.27 854 25.22 -1.8 28.7 42 -13.2 8.2 0 0
02:23 1025 30.27 854 25.22 -1.8 28.7 42 -13.3 8.1 0 0
02:24 1025 30.27 854 25.22 -2.2 28.1 40 -14.1 6.6 0 0
02:25 1025 30.27 854 25.22 -3.3 26.1 45 -13.5 7.7 0 0
02:26 1025 30.27 854 25.22 -3.5 25.6 47 -13.3 8 0 0
02:27 1025 30.27 854 25.22 -3.2 26.3 46 -13.3 8 0 0
02:28 1025 30.27 854 25.22 -2.8 27 44 -13.3 8 0 0
02:29 1025 30.27 854 25.22 -2.5 27.6 44 -13.3 8.1 0 0
02:30 1025 30.27 854 25.22 -2.2 28 43 -13.3 8.1 0 0
02:31 1025 30.27 854 25.22 -1.9 28.6 42 -13.2 8.2 0 0
02:32 1025 30.27 854 25.22 -1.7 29 41 -13.2 8.2 0 0
02:33 1025 30.27 854 25.22 -1.6 29.2 41 -13.3 8.1 0 0
02:34 1025 30.27 854 25.22 -2 28.4 40 -13.8 7.2 0 0
02:35 1025 30.27 854 25.22 -3.5 25.7 46 -13.6 7.6 0 0
02:36 1025 30.27 854 25.22 -4.3 24.3 48 -13.6 7.5 0 0
02:37 1025 30.27 854 25.22 -4.7 23.5 50 -13.7 7.3 0 0
02:38 1025 30.27 854 25.22 -5.1 22.8 52 -13.6 7.5 0 0
02:39 1025 30.27 854 25.22 -5.5 22.1 53 -13.7 7.3 0 0
02:40 1025 30.27 854 25.22 -5.7 21.7 55 -13.5 7.7 0 0
02:41 1025 30.27 854 25.22 -5.5 22.1 54 -13.5 7.7 0 0
02:42 1025 30.27 854 25.22 -5.3 22.5 53 -13.5 7.6 0 0
02:43 1025 30.27 854 25.22 -5.2 22.6 53 -13.5 7.7 0 0
02:44 1025 30.27 854 25.22 -5.3 22.5 53 -13.4 7.9 0 0
02:45 1025 30.27 854 25.22 -5.2 22.7 53 -13.4 7.9 0 0
02:46 1025 30.27 854 25.22 -4.9 23.1 52 -13.3 8.1 0 0
02:47 1025 30.27 854 25.22 -4.7 23.5 52 -13.2 8.3 0 0
02:48 1025 30.27 854 25.22 -4.5 23.8 51 -13.2 8.3 0 0
02:49 1025 30.27 854 25.22 -4.4 24.2 51 -13.1 8.4 0 0
02:50 1025 30.27 854 25.22 -4.3 24.3 51 -13.1 8.5 0 0
02:51 1025 30.27 854 25.22 -4.1 24.6 50 -13.1 8.4 0 0
02:52 1025 30.27 854 25.22 -3.8 25.1 49 -13.1 8.5 0 0
02:53 1025 30.27 854 25.22 -3.6 25.5 48 -13 8.6 0 0
02:54 1025 30.27 854 25.22 -3.4 25.8 48 -12.9 8.7 0 0
02:55 1025 30.27 854 25.22 -3.4 25.9 48 -12.8 8.9 0 0
02:56 1025 30.27 854 25.22 -3.5 25.8 48 -12.9 8.7 0 0
02:57 1025 30.27 854 25.22 -3.4 25.9 48 -12.8 8.9 0 0
02:58 1025 30.27 854 25.22 -3.4 25.9 48 -12.8 8.9 0 0
02:59 1025 30.27 854 25.22 -3.5 25.8 49 -12.8 8.9 0 0
03:00 1025 30.27 854 25.22 -3.6 25.6 49 -12.9 8.9 0 0
03:01 1025 30.27 854 25.22 -3.7 25.4 49 -12.9 8.8 0 0
03:02 1025 30.27 854 25.22 -3.9 25 50 -12.8 9 0 0
03:03 1025 30.27 854 25.22 -4.2 24.4 52 -12.8 9 0 0
03:04 1025 30.27 854 25.22 -4.6 23.8 53 -12.9 8.9 0 0
03:05 1025 30.27 854 25.22 -4.8 23.4 53 -12.9 8.8 0 0
03:06 1025 30.27 854 25.22 -4.9 23.1 54 -12.9 8.7 0 0
03:07 1025 30.27 854 25.22 -4.9 23.2 54 -12.9 8.7 0 0
03:08 1025 30.27 854 25.22 -4.8 23.4 53 -12.9 8.7 0 0
03:09 1025 30.27 854 25.22 -4.6 23.7 52 -13 8.7 0 0
03:10 1025 30.27 854 25.22 -4.4 24.1 52 -12.9 8.8 0 0
03:11 1025 30.27 854 25.22 -4.3 24.2 52 -12.9 8.8 0 0
03:12 1025 30.27 854 25.22 -4.4 24.1 51 -13 8.6 0 0
03:13 1025 30.27 854 25.22 -4.4 24.1 52 -12.9 8.8 0 0
03:14 1025 30.27 854 25.22 -4.5 23.9 52 -13 8.6 0 0
03:15 1025 30.27 854 25.22 -4.6 23.6 52 -13 8.6 0 0
03:16 1025 30.27 854 25.22 -4.9 23.3 53 -13.1 8.5 0 0
03:17 1025 30.27 854 25.22 -4.9 23.2 53 -13.1 8.5 0 0
03:18 1025 30.27 854 25.22 -5 23 53 -13.1 8.4 0 0
03:19 1025 30.27 854 25.22 -4.9 23.2 52 -13.2 8.2 0 0
03:20 1025 30.27 854 25.22 -4.6 23.8 51 -13.3 8.1 0 0
03:21 1025 30.27 854 25.22 -4.3 24.3 49 -13.5 7.7 0 0
03:22 1025 30.27 854 25.22 -3.7 25.3 46 -13.8 7.2 0 0
03:23 1025 30.27 854 25.22 -2.8 26.9 42 -14 6.9 0 0
03:24 1025 30.27 854 25.22 -1.9 28.5 39 -14 6.8 0 0
03:25 1025 30.27 854 25.22 -1.2 29.8 38 -13.8 7.2 0 0
03:26 1025 30.27 854 25.22 -0.8 30.5 37 -13.8 7.1 0 0
03:27 1025 30.27 854 25.22 -0.7 30.8 37 -13.7 7.4 0 0
03:28 1025 30.27 854 25.22 -0.8 30.6 38 -13.6 7.6 0 0
03:29 1025 30.27 854 25.22 -0.8 30.6 37 -13.7 7.3 0 0
03:30 1025 30.27 854 25.22 -0.7 30.7 37 -13.6 7.5 0 0
03:31 1025 30.27 854 25.22 -0.6 30.9 37 -13.7 7.4 0 0
03:32 1025 30.27 854 25.22 -0.6 30.8 37 -13.7 7.4 0 0
03:33 1025 30.27 854 25.22 -0.7 30.7 37 -13.5 7.6 0 0
03:34 1025 30.27 854 25.22 -1.1 30 39 -13.4 7.8 0 0
03:35 1025 30.27 854 25.22 -1.2 29.8 39 -13.6 7.6 0 0
03:36 1025 30.27 854 25.22 -1.2 29.8 39 -13.5 7.7 0 0
03:37 1025 30.27 854 25.22 -1.4 29.5 40 -13.4 7.9 0 0
03:38 1025 30.27 854 25.22 -1.7 29 41 -13.4 7.9 0 0
03:39 1025 30.27 854 25.22 -2 28.4 42 -13.3 8.1 0 0
03:40 1025 30.27 854 25.22 -2.4 27.6 43 -13.2 8.2 0 0
03:41 1025 30.27 854 25.22 -2.9 26.8 45 -13.1 8.4 0 0
03:42 1025 30.27 854 25.22 -3.4 25.8 47 -13.1 8.3 0 0
03:43 1025 30.27 854 25.22 -3.6 25.5 47 -13.3 8.1 0 0
03:44 1025 30.27 854 25.22 -3.7 25.4 47 -13.4 7.9 0 0
03:45 1025 30.27 854 25.22 -3.7 25.3 48 -13.3 8 0 0
03:46 1025 30.27 854 25.22 -4 24.9 48 -13.3 8 0 0
03:47 1025 30.27 854 25.22 -4.1 24.7 49 -13.4 7.9 0 0
03:48 1025 30.27 854 25.22 -4.2 24.5 49 -13.4 7.9 0 0
03:49 1025 30.27 854 25.22 -4.1 24.5 49 -13.4 7.8 0 0
03:50 1025 30.27 854 25.22 -4.2 24.5 49 -13.4 7.8 0 0
03:51 1025 30.27 854 25.22 -4.3 24.3 49 -13.6 7.6 0 0
03:52 1025 30.27 854 25.22 -4.5 23.9 50 -13.5 7.7 0 0
03:53 1025 30.27 854 25.22 -4.7 23.5 50 -13.5 7.7 0 0
03:54 1025 30.27 854 25.22 -4.9 23.2 52 -13.4 7.8 0 0
03:55 1025 30.27 854 25.22 -4.8 23.4 51 -13.3 8 0 0
03:56 1025 30.27 854 25.22 -4.3 24.2 49 -13.4 7.8 0 0
03:57 1025 30.27 854 25.22 -3.6 25.4 47 -13.4 7.9 0 0
03:58 1025 30.27 854 25.22 -3.1 26.5 45 -13.3 8 0 0
03:59 1025 30.27 854 25.22 -2.7 27.2 43 -13.5 7.7 0 0
04:00 1025 30.27 854 25.22 -2.9 26.8 44 -13.4 7.9 0 0
04:01 1025 30.27 854 25.22 -3.1 26.4 45 -13.5 7.7 0 0
04:02 1025 30.27 854 25.22 -3.2 26.2 44 -13.7 7.3 0 0
04:03 1025 30.27 854 25.22 -3.5 25.8 46 -13.6 7.6 0 0
04:04 1025 30.27 854 25.22 -4 24.8 47 -13.6 7.4 0 0
04:05 1025 30.27 854 25.22 -4.2 24.4 49 -13.5 7.8 0 0
04:06 1025 30.27 854 25.22 -4 24.7 48 -13.5 7.8 0 0
04:07 1025 30.27 854 25.22 -3.9 25 48 -13.5 7.7 0 0
04:08 1025 30.27 854 25.22 -3.8 25.2 47 -13.4 7.8 0 0
04:09 1025 30.27 854 25.22 -3.6 25.5 47 -13.4 7.9 0 0
04:10 1025 30.27 854 25.22 -3.4 25.8 46 -13.4 7.9 0 0
04:11 1025 30.27 854 25.22 -3.3 26.2 45 -13.4 7.8 0 0
04:12 1025 30.27 854 25.22 -3.3 26 45 -13.7 7.3 0 0
04:13 1025 30.27 854 25.22 -3.7 25.3 46 -13.7 7.4 0 0
04:14 1025 30.27 854 25.22 -4 24.9 46 -14 6.8 0 0
04:15 1025 30.27 854 25.22 -4.3 24.2 48 -13.7 7.4 0 0
04:16 1025 30.27 854 25.22 -4.4 24.1 49 -13.7 7.3 0 0
04:17 1025 30.27 854 25.22 -4.3 24.3 47 -13.9 6.9 0 0
04:18 1025 30.27 854 25.22 -4.4 24 48 -14 6.9 0 0
04:19 1025 30.27 854 25.22 -4.6 23.6 47 -14.2 6.4 0 0
04:20 1025 30.27 854 25.22 -4.8 23.3 50 -13.9 7.1 0 0
04:21 1025 30.27 854 25.22 -4.8 23.4 49 -13.9 7 0 0
04:22 1025 30.27 854 25.22 -4.6 23.7 49 -13.9 7 0 0
04:23 1025 30.27 854 25.22 -4.2 24.4 47 -13.9 6.9 0 0
04:24 1025 30.27 854 25.22 -4 24.8 46 -13.9 7 0 0
04:25 1025 30.27 854 25.22 -4.1 24.6 46 -14.2 6.5 0 0
04:26 1025 30.27 854 25.22 -4.4 24 47 -14.2 6.4 0 0
04:27 1025 30.27 854 25.22 -4.9 23.1 48 -14.4 6.1 0 0
04:28 1025 30.27 854 25.22 -5.5 22.2 50 -14.2 6.4 0 0
04:29 1025 30.27 854 25.22 -5.8 21.5 51 -14.3 6.2 0 0
04:30 1025 30.27 854 25.22 -6 21.1 52 -14.3 6.3 0 0
04:31 1025 30.27 854 25.22 -6.2 20.8 53 -14.4 6 0 0
04:32 1025 30.27 854 25.22 -6.3 20.6 54 -14.2 6.5 0 0
04:33 1025 30.27 854 25.22 -6.3 20.7 53 -14.4 6 0 0
04:34 1025 30.27 854 25.22 -6.3 20.6 52 -14.6 5.8 0 0
04:35 1025 30.27 854 25.22 -6.5 20.4 54 -14.3 6.3 0 0
04:36 1025 30.27 854 25.22 -6.4 20.5 54 -14.3 6.3 0 0
04:37 1025 30.27 854 25.22 -6.5 20.4 55 -14.1 6.6 0 0
04:38 1025 30.27 854 25.22 -6.4 20.5 55 -14 6.8 0 0
04:39 1025 30.27 854 25.22 -6.4 20.6 55 -13.9 7 0 0
04:40 1025 30.27 854 25.22 -6.2 20.8 55 -13.9 7 0 0
04:41 1025 30.27 854 25.22 -6.3 20.7 56 -13.7 7.3 0 0
04:42 1025 30.27 854 25.22 -6.3 20.7 56 -13.8 7.2 0 0
04:43 1025 30.27 854 25.22 -6.2 20.9 56 -13.7 7.4 0 0
04:44 1025 30.27 854 25.22 -5.9 21.3 55 -13.6 7.5 0 0
04:45 1025 30.27 854 25.22 -5.5 22.1 53 -13.6 7.5 0 0
04:46 1025 30.27 854 25.22 -5.1 22.8 52 -13.5 7.6 0 0
04:47 1025 30.27 854 25.22 -4.8 23.3 50 -13.7 7.3 0 0
04:48 1025 30.27 854 25.22 -4.8 23.3 51 -13.6 7.6 0 0
04:49 1025 30.27 854 25.22 -4.8 23.4 50 -13.6 7.5 0 0
04:50 1025 30.27 854 25.22 -4.8 23.4 50 -13.6 7.6 0 0
04:51 1025 30.27 854 25.22 -4.8 23.4 50 -13.6 7.5 0 0
04:52 1025 30.27 854 25.22 -4.8 23.4 50 -13.6 7.6 0 0
04:53 1025 30.27 854 25.22 -4.8 23.3 51 -13.6 7.6 0 0
04:54 1025 30.27 854 25.22 -4.9 23.2 51 -13.6 7.5 0 0
04:55 1025 30.27 854 25.22 -4.9 23.3 50 -13.7 7.3 0 0
04:56 1025 30.27 854 25.22 -4.8 23.4 50 -13.6 7.5 0 0
04:57 1025 30.27 854 25.22 -4.8 23.4 51 -13.5 7.6 0 0
04:58 1025 30.27 854 25.22 -4.8 23.4 51 -13.4 7.9 0 0
04:59 1025 30.27 854 25.22 -4.9 23.1 52 -13.4 7.9 0 0
05:00 1025 30.27 854 25.22 -5 23.1 52 -13.4 8 0 0
05:01 1025 30.27 854 25.22 -5 23 52 -13.4 7.9 0 0
05:02 1025 30.27 854 25.22 -5.2 22.7 53 -13.3 8 0 0
05:03 1025 30.27 855 25.25 -5.2 22.6 53 -13.4 8 0 0
05:04 1025 30.27 855 25.25 -5.3 22.5 53 -13.3 8 0 0
05:05 1025 30.27 855 25.25 -5.3 22.5 53 -13.3 8.1 0 0
05:06 1025 30.27 854 25.22 -5.2 22.6 53 -13.4 7.9 0 0
05:07 1025 30.27 854 25.22 -5.2 22.7 53 -13.4 7.9 0 0
05:08 1025 30.27 854 25.22 -5.2 22.7 53 -13.4 7.9 0 0
05:09 1025 30.27 854 25.22 -5.3 22.5 53 -13.3 8 0 0
05:10 1025 30.27 855 25.25 -5.3 22.4 54 -13.3 8 0 0
05:11 1025 30.27 855 25.25 -5.4 22.3 54 -13.4 7.9 0 0
05:12 1025 30.27 855 25.25 -5.4 22.2 54 -13.4 7.9 0 0
05:13 1025 30.27 854 25.22 -5.3 22.4 53 -13.5 7.6 0 0
05:14 1025 30.27 854 25.22 -5.4 22.3 53 -13.4 7.8 0 0
05:15 1025 30.27 854 25.22 -5.3 22.4 53 -13.5 7.7 0 0
05:16 1025 30.27 854 25.22 -5.2 22.6 52 -13.5 7.7 0 0
05:17 1025 30.27 854 25.22 -5.3 22.5 53 -13.5 7.7 0 0
05:18 1025 30.27 854 25.22 -5.4 22.3 53 -13.6 7.5 0 0
05:19 1025 30.27 854 25.22 -5.6 22 54 -13.6 7.6 0 0
05:20 1025 30.27 854 25.22 -5.7 21.7 55 -13.5 7.8 0 0
05:21 1025 30.27 854 25.22 -5.5 22.1 53 -13.6 7.6 0 0
05:22 1025 30.27 854 25.22 -5.2 22.7 52 -13.6 7.5 0 0
05:23 1025 30.27 854 25.22 -4.8 23.3 51 -13.6 7.6 0 0
05:24 1025 30.27 854 25.22 -4.8 23.4 50 -13.6 7.6 0 0
05:25 1025 30.27 854 25.22 -4.7 23.6 50 -13.5 7.6 0 0
05:26 1025 30.27 854 25.22 -4.6 23.7 50 -13.5 7.6 0 0
05:27 1025 30.27 854 25.22 -4.7 23.5 49 -13.8 7.2 0 0
05:28 1025 30.27 854 25.22 -5.1 22.9 51 -13.7 7.3 0 0
05:29 1025 30.27 854 25.22 -5.1 22.8 51 -13.8 7.2 0 0
05:30 1025 30.27 854 25.22 -5.1 22.8 51 -13.7 7.3 0 0
05:31 1025 30.27 854 25.22 -5.1 22.8 52 -13.6 7.5 0 0
05:32 1025 30.27 854 25.22 -5 23.1 51 -13.6 7.6 0 0
05:33 1025 30.27 854 25.22 -4.8 23.3 51 -13.6 7.6 0 0
05:34 1025 30.27 854 25.22 -4.8 23.4 50 -13.6 7.6 0 0
05:35 1025 30.27 854 25.22 -4.8 23.4 50 -13.6 7.5 0 0
05:36 1025 30.27 854 25.22 -5 22.9 51 -13.6 7.5 0 0
05:37 1025 30.27 854 25.22 -5.1 22.8 51 -13.6 7.5 0 0
05:38 1025 30.27 854 25.22 -5.1 22.9 51 -13.6 7.4 0 0
05:39 1025 30.27 854 25.22 -5.1 22.8 51 -13.7 7.4 0 0
05:40 1025 30.27 854 25.22 -5.2 22.6 52 -13.5 7.7 0 0
05:41 1025 30.27 854 25.22 -5.1 22.8 52 -13.6 7.6 0 0
05:42 1025 30.27 854 25.22 -5.1 22.9 52 -13.5 7.7 0 0
05:43 1025 30.27 854 25.22 -5.1 22.8 52 -13.5 7.7 0 0
05:44 1025 30.27 854 25.22 -5 22.9 52 -13.5 7.7 0 0
05:45 1025 30.27 854 25.22 -4.9 23.1 51 -13.5 7.7 0 0
05:46 1025 30.27 854 25.22 -4.9 23.1 51 -13.5 7.8 0 0
05:47 1025 30.27 854 25.22 -4.9 23.2 51 -13.5 7.7 0 0
05:48 1025 30.27 855 25.25 -4.8 23.3 51 -13.5 7.7 0 0
05:49 1025 30.27 855 25.25 -4.7 23.6 50 -13.5 7.7 0 0
05:50 1025 30.27 855 25.25 -4.5 23.9 49 -13.6 7.5 0 0
05:51 1025 30.27 855 25.25 -4.2 24.4 48 -13.7 7.3 0 0
05:52 1025 30.27 855 25.25 -4 24.8 47 -13.7 7.3 0 0
05:53 1025 30.27 855 25.25 -4.1 24.6 47 -13.9 7 0 0
05:54 1025 30.27 855 25.25 -4.5 23.8 48 -14 6.9 0 0
05:55 1025 30.27 855 25.25 -5.1 22.8 50 -14.1 6.6 0 0
05:56 1025 30.27 855 25.25 -5.3 22.4 49 -14.4 6.2 0 0
05:57 1025 30.27 855 25.25 -5.5 22.1 50 -14.3 6.3 0 0
05:58 1025 30.27 855 25.25 -5.7 21.8 51 -14.2 6.4 0 0
05:59 1025 30.27 855 25.25 -5.7 21.8 52 -14.2 6.5 0 0
06:00 1025 30.27 855 25.25 -5.4 22.2 51 -14.1 6.5 0 0
06:01 1026 30.3 855 25.25 -5.1 22.8 50 -14.1 6.7 0 0
06:02 1026 30.3 855 25.25 -4.8 23.4 48 -14.2 6.5 0 0
06:03 1026 30.3 855 25.25 -4.6 23.8 48 -14.1 6.6 0 0
06:04 1026 30.3 855 25.25 -4.2 24.4 46 -14.2 6.5 0 0
06:05 1026 30.3 855 25.25 -4.3 24.3 47 -14 6.8 0 0
06:06 1025 30.27 855 25.25 -4.5 23.8 48 -14 6.8 0 0
06:07 1025 30.27 855 25.25 -4.7 23.6 49 -13.9 7 0 0
06:08 1025 30.27 855 25.25 -4.8 23.3 49 -14 6.8 0 0
06:09 1025 30.27 855 25.25 -5 23.1 50 -13.9 7.1 0 0
06:10 1025 30.27 855 25.25 -4.9 23.2 50 -13.9 7 0 0
06:11 1026 30.3 855 25.25 -4.9 23.3 50 -13.9 7.1 0 0
06:12 1025 30.27 855 25.25 -4.8 23.3 50 -13.8 7.1 0 0
06:13 1025 30.27 855 25.25 -4.9 23.2 50 -13.7 7.4 0 0
06:14 1025 30.27 855 25.25 -4.8 23.3 50 -13.8 7.2 0 0
06:15 1026 30.3 855 25.25 -4.5 23.9 48 -13.9 7 0 0
06:16 1026 30.3 855 25.25 -4.2 24.4 47 -14 6.8 0 0
06:17 1026 30.3 855 25.25 -4.2 24.4 47 -13.8 7.1 0 0
06:18 1026 30.3 855 25.25 -4.4 24.1 48 -13.9 7 0 0
06:19 1026 30.3 855 25.25 -4.6 23.8 49 -13.8 7.1 0 0
06:20 1026 30.3 855 25.25 -4.6 23.7 49 -13.9 6.9 0 0
06:21 1026 30.3 855 25.25 -4.4 24.1 48 -13.9 7 0 0
06:22 1026 30.3 855 25.25 -4.3 24.2 48 -13.8 7.1 0 0
06:23 1026 30.3 855 25.25 -4.3 24.3 47 -13.9 7 0 0
06:24 1026 30.3 855 25.25 -4.1 24.7 47 -13.9 7 0 0
06:25 1026 30.3 855 25.25 -4 24.7 47 -13.7 7.4 0 0
06:26 1026 30.3 855 25.25 -4.2 24.5 48 -13.6 7.5 0 0
06:27 1026 30.3 855 25.25 -4.4 24 50 -13.5 7.8 0 0
06:28 1026 30.3 855 25.25 -4.8 23.4 51 -13.4 7.9 0 0
06:29 1026 30.3 855 25.25 -5 22.9 52 -13.4 7.9 0 0
06:30 1026 30.3 855 25.25 -4.9 23.2 51 -13.5 7.7 0 0
06:31 1026 30.3 855 25.25 -4.8 23.3 51 -13.5 7.7 0 0
06:32 1026 30.3 855 25.25 -4.8 23.4 51 -13.4 7.8 0 0
06:33 1026 30.3 855 25.25 -4.9 23.3 51 -13.4 7.9 0 0
06:34 1026 30.3 855 25.25 -5.1 22.9 53 -13.3 8 0 0
06:35 1026 30.3 855 25.25 -5.3 22.4 54 -13.2 8.2 0 0
06:36 1026 30.3 855 25.25 -5.5 22.2 55 -13.2 8.3 0 0
06:37 1026 30.3 855 25.25 -5.4 22.3 55 -13.2 8.3 0 0
06:38 1026 30.3 855 25.25 -5.2 22.7 54 -13.1 8.5 0 0
06:39 1026 30.3 855 25.25 -5.1 22.9 54 -13.1 8.4 0 0
06:40 1025 30.27 855 25.25 -5 23 53 -13.1 8.5 0 0
06:41 1025 30.27 855 25.25 -4.9 23.1 53 -13.1 8.4 0 0
06:42 1026 30.3 855 25.25 -4.6 23.7 51 -13.3 8 0 0
06:43 1026 30.3 855 25.25 -4.2 24.4 50 -13.3 8.1 0 0
06:44 1026 30.3 855 25.25 -4 24.8 49 -13.2 8.3 0 0
06:45 1026 30.3 855 25.25 -3.9 25 48 -13.3 8.1 0 0
06:46 1026 30.3 855 25.25 -3.7 25.3 46 -13.6 7.5 0 0
06:47 1026 30.3 855 25.25 -3.4 25.9 46 -13.5 7.6 0 0
06:48 1026 30.3 855 25.25 -3.2 26.2 45 -13.4 7.8 0 0
06:49 1026 30.3 855 25.25 -3.2 26.3 46 -13.4 7.9 0 0
06:50 1026 30.3 855 25.25 -3.2 26.2 46 -13.2 8.2 0 0
06:51 1026 30.3 855 25.25 -3.4 25.8 46 -13.5 7.7 0 0
06:52 1026 30.3 855 25.25 -3.5 25.7 48 -13 8.6 0 0
06:53 1026 30.3 855 25.25 -3.6 25.6 48 -13 8.6 0 0
06:54 1026 30.3 855 25.25 -3.6 25.4 49 -12.9 8.7 0 0
06:55 1026 30.3 855 25.25 -3.7 25.3 49 -13 8.6 0 0
06:56 1026 30.3 855 25.25 -4 24.9 49 -13.1 8.4 0 0
06:57 1026 30.3 855 25.25 -4.2 24.5 49 -13.4 8 0 0
06:58 1026 30.3 855 25.25 -4.2 24.5 49 -13.4 7.8 0 0
06:59 1026 30.3 855 25.25 -4.2 24.5 49 -13.5 7.7 0 0
07:00 1026 30.3 855 25.25 -4.2 24.5 48 -13.5 7.6 0 0
07:01 1026 30.3 855 25.25 -4.3 24.3 48 -13.6 7.5 0 0
07:02 1026 30.3 855 25.25 -4.3 24.3 48 -13.7 7.4 0 0
07:03 1026 30.3 855 25.25 -4.4 24.1 48 -13.8 7.1 0 0
07:04 1026 30.3 855 25.25 -4.4 24.2 48 -13.8 7.2 0 0
07:05 1026 30.3 855 25.25 -4.4 24 48 -13.8 7.1 0 0
07:06 1026 30.3 855 25.25 -4.5 23.9 48 -13.8 7.1 0 0
07:07 1026 30.3 855 25.25 -4.6 23.7 49 -13.9 7 0 0
07:08 1026 30.3 855 25.25 -4.7 23.5 49 -13.9 7.1 0 0
07:09 1026 30.3 855 25.25 -4.8 23.3 50 -13.8 7.1 0 0
07:10 1026 30.3 855 25.25 -4.9 23.2 50 -13.8 7.2 0 0
07:11 1026 30.3 855 25.25 -5.1 22.9 51 -13.7 7.3 0 0
07:12 1026 30.3 855 25.25 -5.2 22.7 51 -13.8 7.1 0 0
07:13 1026 30.3 855 25.25 -5.1 22.8 50 -13.9 7 0 0
07:14 1026 30.3 855 25.25 -5 23 50 -14 6.8 0 0
07:15 1026 30.3 855 25.25 -4.8 23.3 49 -14 6.8 0 0
07:16 1026 30.3 855 25.25 -4.8 23.3 49 -14 6.8 0 0
07:17 1026 30.3 855 25.25 -4.9 23.2 49 -14 6.7 0 0
07:18 1026 30.3 855 25.25 -5 23 49 -14.1 6.6 0 0
07:19 1026 30.3 855 25.25 -5.1 22.9 50 -14.1 6.7 0 0
07:20 1026 30.3 855 25.25 -5.1 22.8 50 -14.1 6.7 0 0
07:21 1026 30.3 855 25.25 -5.2 22.7 50 -14.1 6.7 0 0
07:22 1026 30.3 855 25.25 -5.3 22.4 50 -14.1 6.7 0 0
07:23 1026 30.3 855 25.25 -5.6 21.9 52 -14 6.9 0 0
07:24 1026 30.3 855 25.25 -5.7 21.8 52 -14.1 6.6 0 0
07:25 1026 30.3 855 25.25 -5.6 21.8 52 -14 6.7 0 0
07:26 1026 30.3 855 25.25 -5.8 21.6 53 -13.9 6.9 0 0
07:27 1026 30.3 855 25.25 -5.8 21.5 53 -13.9 7 0 0
07:28 1026 30.3 855 25.25 -5.8 21.6 53 -13.9 7 0 0
07:29 1026 30.3 855 25.25 -5.7 21.7 53 -13.8 7.1 0 0
07:30 1026 30.3 855 25.25 -5.8 21.6 53 -13.8 7.1 0 0
07:31 1026 30.3 855 25.25 -5.8 21.5 53 -13.9 7 0 0
07:32 1026 30.3 855 25.25 -5.9 21.4 54 -13.7 7.3 0 0
07:33 1026 30.3 855 25.25 -5.9 21.5 54 -13.7 7.3 0 0
07:34 1026 30.3 855 25.25 -5.9 21.4 55 -13.7 7.4 0 0
07:35 1026 30.3 855 25.25 -5.9 21.3 55 -13.6 7.6 0 0
07:36 1026 30.3 855 25.25 -5.9 21.4 55 -13.5 7.7 0 0
07:37 1026 30.3 855 25.25 -5.7 21.7 55 -13.5 7.8 0 0
07:38 1026 30.3 855 25.25 -5.7 21.7 55 -13.5 7.7 0 0
07:39 1026 30.3 855 25.25 -5.7 21.7 55 -13.5 7.8 0 0
07:40 1026 30.3 855 25.25 -5.7 21.8 55 -13.4 7.8 0 0
07:41 1026 30.3 855 25.25 -5.6 21.8 55 -13.4 7.9 0 0
07:42 1026 30.3 855 25.25 -5.5 22 55 -13.3 8 0 0
07:43 1026 30.3 855 25.25 -5.3 22.4 54 -13.2 8.2 0 0
07:44 1026 30.3 855 25.25 -5.1 22.8 54 -13.1 8.3 0 0
07:45 1026 30.3 855 25.25 -5 23 53 -13.2 8.3 0 0
07:46 1026 30.3 855 25.25 -5 23.1 53 -13.1 8.4 0 0
07:47 1026 30.3 855 25.25 -5 23 53 -13.2 8.3 0 0
07:48 1026 30.3 855 25.25 -4.8 23.3 53 -13.1 8.4 0 0
07:49 1026 30.3 855 25.25 -4.8 23.3 53 -13.1 8.4 0 0
07:50 1026 30.3 855 25.25 -4.9 23.2 53 -13 8.6 0 0
07:51 1026 30.3 855 25.25 -4.9 23.1 53 -13 8.6 0 0
07:52 1026 30.3 855 25.25 -4.9 23.2 53 -13.1 8.5 0 0
07:53 1026 30.3 855 25.25 -4.8 23.4 53 -13 8.7 0 0
07:54 1026 30.3 855 25.25 -4.9 23.1 53 -13 8.6 0 0
07:55 1026 30.3 855 25.25 -5.1 22.8 54 -13 8.5 0 0
07:56 1026 30.3 855 25.25 -5.3 22.5 54 -13.1 8.5 0 0
07:57 1026 30.3 855 25.25 -5.4 22.2 55 -13.1 8.4 0 0
07:58 1026 30.3 855 25.25 -5.5 22.1 55 -13.2 8.3 0 0
07:59 1026 30.3 855 25.25 -5.5 22.1 55 -13.1 8.4 0 0
08:00 1026 30.3 855 25.25 -5.5 22.2 55 -13.2 8.3 0 0
08:01 1026 30.3 855 25.25 -5.5 22.2 55 -13.1 8.5 0 0
08:02 1026 30.3 855 25.25 -5.5 22.1 56 -13.1 8.5 0 0
08:03 1026 30.3 855 25.25 -5.5 22.1 55 -13.1 8.4 0 0
08:04 1026 30.3 855 25.25 -5.5 22.1 55 -13.1 8.4 0 0
08:05 1026 30.3 855 25.25 -5.4 22.2 55 -13.1 8.3 0 0
08:06 1026 30.3 855 25.25 -5.3 22.4 54 -13.2 8.3 0 0
08:07 1026 30.3 855 25.25 -5.3 22.4 54 -13.2 8.2 0 0
08:08 1026 30.3 855 25.25 -5.2 22.7 53 -13.4 7.9 0 0
08:09 1026 30.3 855 25.25 -4.9 23.2 52 -13.4 8 0 0
08:10 1026 30.3 855 25.25 -4.8 23.3 52 -13.4 7.9 0 0
08:11 1026 30.3 855 25.25 -4.9 23.3 52 -13.4 7.9 0 0
08:12 1026 30.3 855 25.25 -4.9 23.2 52 -13.4 7.9 0 0
08:13 1026 30.3 855 25.25 -5 23.1 52 -13.3 8 0 0
08:14 1026 30.3 855 25.25 -5.1 22.9 52 -13.4 7.9 0 0
08:15 1026 30.3 855 25.25 -5.1 22.8 52 -13.4 7.8 0 0
08:16 1026 30.3 855 25.25 -5 23 52 -13.5 7.8 0 0
08:17 1026 30.3 855 25.25 -4.9 23.2 51 -13.4 7.8 0 0
08:18 1026 30.3 855 25.25 -4.8 23.3 51 -13.4 7.8 0 0
08:19 1026 30.3 855 25.25 -4.8 23.4 51 -13.5 7.8 0 0
08:20 1026 30.3 855 25.25 -4.7 23.5 51 -13.5 7.8 0 0
08:21 1026 30.3 855 25.25 -4.8 23.4 51 -13.4 7.8 0 0
08:22 1026 30.3 855 25.25 -4.8 23.3 51 -13.6 7.6 0 0
08:23 1026 30.3 855 25.25 -4.7 23.5 50 -13.5 7.7 0 0
08:24 1026 30.3 855 25.25 -5 23 52 -13.5 7.7 0 0
08:25 1026 30.3 855 25.25 -5.5 22.1 54 -13.5 7.7 0 0
08:26 1026 30.3 855 25.25 -5.7 21.7 54 -13.6 7.5 0 0
08:27 1026 30.3 855 25.25 -5.9 21.3 55 -13.6 7.6 0 0
08:28 1026 30.3 855 25.25 -6.2 20.8 56 -13.6 7.6 0 0
08:29 1026 30.3 855 25.25 -6.5 20.4 57 -13.5 7.6 0 0
08:30 1026 30.3 855 25.25 -6.4 20.5 57 -13.6 7.6 0 0
08:31 1026 30.3 855 25.25 -6.1 21.1 55 -13.7 7.4 0 0
08:32 1026 30.3 855 25.25 -5.6 22 53 -13.7 7.3 0 0
08:33 1026 30.3 855 25.25 -5.3 22.5 52 -13.6 7.5 0 0
08:34 1026 30.3 855 25.25 -5.4 22.2 53 -13.6 7.6 0 0
08:35 1026 30.3 855 25.25 -5.6 22 54 -13.5 7.6 0 0
08:36 1026 30.3 855 25.25 -5.6 21.9 54 -13.5 7.6 0 0
08:37 1026 30.3 855 25.25 -5.7 21.8 54 -13.5 7.6 0 0
08:38 1026 30.3 855 25.25 -5.6 21.9 54 -13.6 7.6 0 0
08:39 1026 30.3 855 25.25 -5.3 22.4 53 -13.6 7.6 0 0
08:40 1026 30.3 855 25.25 -5.1 22.9 52 -13.5 7.7 0 0
08:41 1026 30.3 855 25.25 -4.9 23.3 51 -13.4 7.8 0 0
08:42 1026 30.3 855 25.25 -4.7 23.5 51 -13.4 7.8 0 0
08:43 1026 30.3 855 25.25 -4.7 23.6 51 -13.3 8.1 0 0
08:44 1026 30.3 855 25.25 -4.6 23.7 51 -13.2 8.2 0 0
08:45 1026 30.3 855 25.25 -4.6 23.7 51 -13.3 8 0 0
08:46 1026 30.3 855 25.25 -4.5 23.9 51 -13.3 8.1 0 0
08:47 1026 30.3 855 25.25 -4.4 24 50 -13.4 7.9 0 0
08:48 1026 30.3 855 25.25 -4.3 24.2 49 -13.4 7.8 0 0
08:49 1026 30.3 855 25.25 -4.1 24.6 49 -13.5 7.8 0 0
08:50 1026 30.3 855 25.25 -3.9 24.9 48 -13.4 7.8 0 0
08:51 1026 30.3 855 25.25 -3.8 25.2 47 -13.5 7.8 0 0
08:52 1026 30.3 855 25.25 -3.5 25.6 46 -13.5 7.7 0 0
08:53 1026 30.3 855 25.25 -3.4 26 46 -13.4 7.9 0 0
08:54 1026 30.3 855 25.25 -3.2 26.2 46 -13.4 7.9 0 0
08:55 1026 30.3 855 25.25 -3.2 26.3 45 -13.4 7.9 0 0
08:56 1026 30.3 855 25.25 -3 26.5 45 -13.4 7.9 0 0
08:57 1026 30.3 855 25.25 -3 26.7 44 -13.5 7.7 0 0
08:58 1026 30.3 855 25.25 -2.9 26.8 44 -13.5 7.7 0 0
08:59 1026 30.3 855 25.25 -2.8 26.9 44 -13.4 7.9 0 0
09:00 1026 30.3 855 25.25 -2.8 27 44 -13.5 7.8 0 0
09:01 1026 30.3 855 25.25 -2.9 26.9 44 -13.5 7.7 0 0
09:02 1026 30.3 855 25.25 -2.8 26.9 44 -13.4 7.8 0 0
09:03 1026 30.3 855 25.25 -2.9 26.9 45 -13.3 8.1 0 0
09:04 1026 30.3 855 25.25 -3 26.6 46 -13.2 8.2 0 0
09:05 1026 30.3 855 25.25 -3.1 26.5 46 -13.2 8.2 0 0
09:06 1026 30.3 855 25.25 -3 26.6 45 -13.3 8 0 0
09:07 1026 30.3 855 25.25 -2.8 26.9 45 -13.2 8.3 0 0
09:08 1026 30.3 855 25.25 -2.9 26.8 45 -13.1 8.4 0 0
09:09 1026 30.3 855 25.25 -2.9 26.7 46 -13 8.6 0 0
09:10 1026 30.3 855 25.25 -3 26.6 46 -13.1 8.4 0 0
09:11 1026 30.3 855 25.25 -3 26.7 46 -13 8.6 0 0
09:12 1026 30.3 855 25.25 -2.9 26.7 46 -12.9 8.7 0 0
09:13 1026 30.3 855 25.25 -2.9 26.9 46 -12.9 8.7 0 0
09:14 1026 30.3 855 25.25 -2.7 27.1 46 -12.8 9 0 0
09:15 1026 30.3 855 25.25 -2.7 27.2 46 -12.9 8.9 0 0
09:16 1026 30.3 855 25.25 -2.5 27.5 44 -13.1 8.5 0 0
09:17 1026 30.3 855 25.25 -2.4 27.7 44 -13 8.7 0 0
09:18 1026 30.3 855 25.25 -2.3 27.9 45 -12.8 9 0 0
09:19 1026 30.3 856 25.28 -2.3 27.9 44 -12.9 8.7 0 0
09:20 1026 30.3 856 25.28 -2.2 28.1 44 -12.8 9 0 0
09:21 1026 30.3 856 25.28 -2.2 28.1 45 -12.5 9.5 0 0
09:22 1026 30.3 856 25.28 -2.3 27.9 45 -12.6 9.4 0 0
09:23 1026 30.3 856 25.28 -2.3 27.8 45 -12.7 9.1 0 0
09:24 1026 30.3 856 25.28 -2.3 27.8 46 -12.5 9.4 0 0
09:25 1026 30.3 856 25.28 -2.3 27.9 46 -12.4 9.7 0 0
09:26 1026 30.3 856 25.28 -2.3 27.8 47 -12.3 9.9 0 0
09:27 1026 30.3 856 25.28 -2.4 27.7 47 -12.4 9.7 0 0
09:28 1026 30.3 856 25.28 -2.4 27.6 47 -12.4 9.8 0 0
09:29 1026 30.3 856 25.28 -2.4 27.6 47 -12.2 10.1 0 0
09:30 1026 30.3 856 25.28 -2.4 27.6 47 -12.2 10 0 0
09:31 1026 30.3 856 25.28 -2.4 27.6 48 -12 10.4 0 0
09:32 1027 30.33 856 25.28 -2.5 27.6 48 -12 10.4 0 0
09:33 1027 30.33 856 25.28 -2.5 27.5 49 -11.9 10.6 0 0
09:34 1027 30.33 856 25.28 -2.7 27.2 50 -11.8 10.8 0 0
09:35 1027 30.33 856 25.28 -2.8 26.9 51 -11.7 11 0 0
09:36 1027 30.33 856 25.28 -3.1 26.5 52 -11.6 11.1 0 0
09:37 1027 30.33 856 25.28 -3.5 25.8 53 -11.8 10.7 0 0
09:38 1027 30.33 856 25.28 -3.6 25.6 52 -12 10.4 0 0
09:39 1027 30.33 856 25.28 -3.4 25.9 51 -12.1 10.3 0 0
09:40 1027 30.33 856 25.28 -3.2 26.3 51 -12.1 10.3 0 0
09:41 1027 30.33 856 25.28 -3.1 26.4 50 -12.2 10.1 0 0
09:42 1027 30.33 856 25.28 -3.1 26.5 52 -11.7 10.9 0 0
09:43 1027 30.33 856 25.28 -3.2 26.3 50 -12.2 10 0 0
09:44 1027 30.33 856 25.28 -3.1 26.4 49 -12.3 9.9 0 0
09:45 1027 30.33 856 25.28 -3 26.6 49 -12.3 9.8 0 0
09:46 1027 30.33 856 25.28 -2.8 27 49 -12.2 10.1 0 0
09:47 1027 30.33 856 25.28 -2.7 27.1 48 -12.2 10.1 0 0
09:48 1027 30.33 856 25.28 -2.8 26.9 50 -11.7 10.9 0 0
09:49 1027 30.33 856 25.28 -3.2 26.2 52 -11.7 10.9 0 0
09:50 1027 30.33 856 25.28 -3.4 25.8 53 -11.7 10.9 0 0
09:51 1027 30.33 856 25.28 -3.5 25.7 54 -11.6 11.1 0 0
09:52 1027 30.33 856 25.28 -3.7 25.3 54 -11.7 11 0 0
09:53 1027 30.33 856 25.28 -3.8 25.1 55 -11.6 11 0 0
09:54 1027 30.33 856 25.28 -3.7 25.3 54 -11.8 10.8 0 0
09:55 1027 30.33 856 25.28 -3.6 25.5 53 -11.8 10.8 0 0
09:56 1027 30.33 856 25.28 -3.6 25.5 53 -11.8 10.8 0 0
09:57 1027 30.33 856 25.28 -3.6 25.5 53 -11.9 10.6 0 0
09:58 1027 30.33 856 25.28 -3.6 25.5 53 -12 10.4 0 0
09:59 1027 30.33 856 25.28 -3.6 25.6 53 -11.9 10.5 0 0
10:00 1027 30.33 856 25.28 -3.5 25.6 53 -11.8 10.7 0 0
10:01 1027 30.33 856 25.28 -3.6 25.6 53 -11.8 10.8 0 0
10:02 1027 30.33 856 25.28 -3.6 25.5 54 -11.7 10.9 0 0
10:03 1027 30.33 856 25.28 -3.7 25.3 54 -11.7 10.9 0 0
10:04 1027 30.33 856 25.28 -3.7 25.3 52 -12.1 10.2 0 0
10:05 1027 30.33 856 25.28 -3.5 25.8 52 -12 10.5 0 0
10:06 1027 30.33 856 25.28 -3.4 26 52 -11.9 10.5 0 0
10:07 1027 30.33 856 25.28 -3.3 26.1 51 -12 10.3 0 0
10:08 1027 30.33 856 25.28 -3.2 26.2 51 -11.9 10.5 0 0
10:09 1027 30.33 856 25.28 -3.2 26.3 51 -11.9 10.6 0 0
10:10 1027 30.33 856 25.28 -3.1 26.5 51 -12 10.5 0 0
10:11 1027 30.33 856 25.28 -2.9 26.7 50 -12 10.4 0 0
10:12 1027 30.33 856 25.28 -2.7 27.1 49 -12 10.4 0 0
10:13 1027 30.33 856 25.28 -2.6 27.3 49 -11.8 10.7 0 0
10:14 1027 30.33 856 25.28 -2.5 27.4 50 -11.7 11 0 0
10:15 1027 30.33 856 25.28 -2.6 27.4 50 -11.6 11.1 0 0
10:16 1027 30.33 856 25.28 -2.6 27.4 50 -11.6 11.1 0 0
10:17 1027 30.33 856 25.28 -2.5 27.4 50 -11.6 11.2 0 0
10:18 1027 30.33 856 25.28 -2.5 27.5 50 -11.5 11.3 0 0
10:19 1027 30.33 856 25.28 -2.5 27.5 50 -11.4 11.4 0 0
10:20 1027 30.33 856 25.28 -2.4 27.7 49 -11.7 11 0 0
10:21 1027 30.33 856 25.28 -2.3 27.9 49 -11.6 11.1 0 0
10:22 1027 30.33 856 25.28 -2.2 28 49 -11.6 11.1 0 0
10:23 1027 30.33 856 25.28 -2.1 28.3 48 -11.7 10.9 0 0
10:24 1027 30.33 856 25.28 -2 28.4 48 -11.6 11.1 0 0
10:25 1027 30.33 856 25.28 -1.9 28.5 48 -11.6 11.2 0 0
10:26 1027 30.33 856 25.28 -1.9 28.5 49 -11.4 11.5 0 0
10:27 1027 30.33 856 25.28 -2 28.5 49 -11.3 11.7 0 0
10:28 1027 30.33 856 25.28 -2 28.5 49 -11.4 11.4 0 0
10:29 1027 30.33 856 25.28 -1.9 28.7 49 -11.2 11.8 0 0
10:30 1027 30.33 856 25.28 -1.8 28.7 49 -11.3 11.7 0 0
10:31 1027 30.33 856 25.28 -1.7 28.9 48 -11.3 11.7 0 0
10:32 1027 30.33 856 25.28 -1.7 29 49 -11.1 12 0 0
10:33 1027 30.33 856 25.28 -1.7 28.9 49 -11 12.2 0 0
10:34 1027 30.33 856 25.28 -1.7 28.9 49 -11 12.2 0 0
10:35 1027 30.33 856 25.28 -1.7 29 48 -11.3 11.6 0 0
10:36 1027 30.33 856 25.28 -1.6 29.1 49 -10.9 12.3 0 0
10:37 1027 30.33 856 25.28 -1.6 29.2 49 -10.9 12.3 0 0
10:38 1027 30.33 856 25.28 -1.6 29.2 48 -11.2 11.8 0 0
10:39 1027 30.33 856 25.28 -1.5 29.3 48 -11 12.1 0 0
10:40 1027 30.33 856 25.28 -1.5 29.3 48 -11 12.1 0 0
10:41 1027 30.33 856 25.28 -1.4 29.4 48 -11.2 11.8 0 0
10:42 1027 30.33 856 25.28 -1.5 29.3 48 -11.1 12.1 0 0
10:43 1027 30.33 856 25.28 -1.5 29.4 48 -11.1 12.1 0 0
10:44 1027 30.33 856 25.28 -1.4 29.5 49 -10.8 12.6 0 0
10:45 1027 30.33 856 25.28 -1.4 29.5 49 -10.8 12.6 0 0
10:46 1027 30.33 856 25.28 -1.4 29.5 49 -10.9 12.4 0 0
10:47 1027 30.33 856 25.28 -1.4 29.6 49 -10.8 12.6 0 0
10:48 1027 30.33 856 25.28 -1.3 29.6 49 -10.7 12.8 0 0
10:49 1027 30.33 856 25.28 -1.4 29.5 50 -10.4 13.3 0 0
10:50 1027 30.33 856 25.28 -1.4 29.4 52 -10.2 13.7 0 0
10:51 1027 30.33 856 25.28 -1.6 29.1 55 -9.6 14.8 0 0
10:52 1027 30.33 856 25.28 -1.8 28.7 56 -9.4 15 0 0
10:53 1027 30.33 856 25.28 -2.1 28.2 56 -9.8 14.4 0 0
10:54 1027 30.33 856 25.28 -2.2 28 56 -9.8 14.4 0 0
10:55 1027 30.33 856 25.28 -2.3 27.9 57 -9.7 14.5 0 0
10:56 1027 30.33 856 25.28 -2.2 28 56 -9.8 14.3 0 0
10:57 1027 30.33 856 25.28 -2.2 28.1 54 -10.2 13.6 0 0
10:58 1027 30.33 856 25.28 -2 28.4 55 -9.8 14.3 0 0
10:59 1027 30.33 856 25.28 -1.9 28.6 54 -10.1 13.8 0 0
11:00 1027 30.33 856 25.28 -1.8 28.8 52 -10.5 13.2 0 0
11:01 1027 30.33 856 25.28 -1.8 28.7 54 -9.9 14.3 0 0
11:02 1027 30.33 856 25.28 -1.9 28.6 54 -10.1 13.8 0 0
11:03 1027 30.33 856 25.28 -2 28.3 53 -10.4 13.2 0 0
11:04 1027 30.33 856 25.28 -2.1 28.3 53 -10.4 13.3 0 0
11:05 1027 30.33 856 25.28 -2.1 28.2 53 -10.4 13.2 0 0
11:06 1027 30.33 856 25.28 -2.2 28.1 54 -10.3 13.5 0 0
11:07 1027 30.33 856 25.28 -2.2 28 53 -10.5 13.1 0 0
11:08 1027 30.33 856 25.28 -2.2 28 54 -10.3 13.5 0 0
11:09 1027 30.33 856 25.28 -2.2 28 53 -10.5 13.1 0 0
11:10 1027 30.33 856 25.28 -2 28.3 51 -10.8 12.5 0 0
11:11 1027 30.33 856 25.28 -1.7 28.9 51 -10.7 12.8 0 0
11:12 1027 30.33 856 25.28 -1.5 29.3 49 -10.8 12.6 0 0
11:13 1027 30.33 856 25.28 -1.4 29.4 50 -10.5 13 0 0
11:14 1027 30.33 856 25.28 -1.6 29.1 52 -10.2 13.6 0 0
11:15 1027 30.33 856 25.28 -1.8 28.7 53 -10.3 13.5 0 0
11:16 1027 30.33 856 25.28 -2 28.5 53 -10.3 13.5 0 0
11:17 1027 30.33 856 25.28 -2 28.4 54 -10.2 13.6 0 0
11:18 1027 30.33 856 25.28 -2 28.4 54 -10.2 13.6 0 0
11:19 1027 30.33 856 25.28 -1.9 28.6 53 -10.2 13.7 0 0
11:20 1027 30.33 856 25.28 -1.7 28.9 53 -10.1 13.9 0 0
11:21 1027 30.33 856 25.28 -1.5 29.2 53 -9.9 14.1 0 0
11:22 1027 30.33 856 25.28 -1.3 29.7 52 -10 13.9 0 0
11:23 1027 30.33 856 25.28 -1.1 30.1 50 -10.3 13.5 0 0
11:24 1027 30.33 856 25.28 -0.7 30.8 49 -10.2 13.7 0 0
11:25 1027 30.33 856 25.28 -0.2 31.6 47 -10.3 13.5 0 0
11:26 1027 30.33 856 25.28 0.3 32.6 44 -10.4 13.3 0 0
11:27 1027 30.33 856 25.28 0.8 33.4 43 -10.4 13.4 0 0
11:28 1027 30.33 856 25.28 1 33.7 42 -10.5 13 0 0
11:29 1027 30.33 856 25.28 1.1 33.9 42 -10.3 13.4 0 0
11:30 1027 30.33 856 25.28 1.1 33.9 42 -10.6 12.9 0 0
11:31 1027 30.33 856 25.28 1.1 34 40 -11 12.2 0 0
11:32 1027 30.33 856 25.28 1.4 34.5 38 -11.4 11.5 0 0
11:33 1027 30.33 856 25.28 1.6 34.9 38 -11.3 11.7 0 0
11:34 1027 30.33 856 25.28 1.7 35 40 -10.4 13.3 0 0
11:35 1027 30.33 856 25.28 1.4 34.6 38 -11.3 11.7 0 0
11:36 1027 30.33 856 25.28 1 33.9 39 -11.4 11.5 0 0
11:37 1027 30.33 856 25.28 0.5 33 45 -10 14 0 0
11:38 1027 30.33 856 25.28 -0 31.9 49 -9.4 15 0 0
11:39 1027 30.33 856 25.28 -0.5 31.1 49 -10 14 0 0
11:40 1027 30.33 856 25.28 -0.8 30.6 50 -10.1 13.9 0 0
11:41 1027 30.33 856 25.28 -0.9 30.4 48 -10.5 13 0 0
11:42 1027 30.33 856 25.28 -0.8 30.5 46 -11.2 11.9 0 0
11:43 1027 30.33 856 25.28 -0.9 30.4 48 -10.7 12.8 0 0
11:44 1027 30.33 856 25.28 -0.7 30.7 51 -9.7 14.5 0 0
11:45 1027 30.33 856 25.28 -0.5 31.1 50 -9.6 14.7 0 0
11:46 1027 30.33 856 25.28 -0.4 31.2 49 -10 14 0 0
11:47 1027 30.33 856 25.28 -0.6 31 45 -11.1 12.1 0 0
11:48 1027 30.33 856 25.28 -0.7 30.8 42 -12.1 10.2 0 0
11:49 1027 30.33 856 25.28 -0.6 31 41 -12.3 9.9 0 0
11:50 1027 30.33 856 25.28 -0.3 31.5 40 -12.4 9.7 0 0
11:51 1027 30.33 856 25.28 -0 32 41 -11.8 10.8 0 0
11:52 1027 30.33 856 25.28 0.2 32.4 42 -11.3 11.6 0 0
11:53 1027 30.33 856 25.28 0.3 32.6 39 -12.1 10.3 0 0
11:54 1027 30.33 856 25.28 0.4 32.8 40 -11.6 11.2 0 0
11:55 1027 30.33 856 25.28 0.4 32.7 42 -11.2 11.9 0 0
11:56 1027 30.33 856 25.28 0.5 32.8 43 -10.8 12.5 0 0
11:57 1027 30.33 856 25.28 0.7 33.2 42 -10.7 12.7 0 0
11:58 1027 30.33 856 25.28 1 33.7 40 -11.2 11.9 0 0
11:59 1027 30.33 856 25.28 1.2 34.2 41 -10.5 13 0 0
12:00 1027 30.33 856 25.28 1.2 34.2 40 -10.9 12.4 0 0
12:01 1027 30.33 856 25.28 1.1 34 41 -10.9 12.5 0 0
12:02 1027 30.33 856 25.28 1.1 34 40 -11 12.2 0 0
12:03 1027 30.33 856 25.28 1.1 34 40 -11.2 11.9 0 0
12:04 1026 30.3 856 25.28 1 33.7 39 -11.4 11.5 0 0
12:05 1026 30.3 856 25.28 0.9 33.6 39 -11.6 11.2 0 0
12:06 1026 30.3 856 25.28 0.8 33.4 40 -11.5 11.4 0 0
12:07 1026 30.3 856 25.28 0.6 33.1 42 -10.8 12.5 0 0
12:08 1026 30.3 856 25.28 0.4 32.8 42 -11.2 11.9 0 0
12:09 1026 30.3 856 25.28 0.3 32.5 44 -10.6 12.9 0 0
12:10 1026 30.3 856 25.28 0.1 32.3 44 -10.6 12.9 0 0
12:11 1026 30.3 856 25.28 -0 31.9 45 -10.5 13.1 0 0
12:12 1026 30.3 856 25.28 -0.2 31.7 46 -10.5 13.1 0 0
12:13 1026 30.3 856 25.28 -0.3 31.4 47 -10.2 13.7 0 0
12:14 1026 30.3 856 25.28 -0.4 31.3 49 -9.8 14.3 0 0
12:15 1026 30.3 856 25.28 -0.4 31.3 49 -10 14 0 0
12:16 1026 30.3 856 25.28 -0.4 31.2 47 -10.4 13.3 0 0
12:17 1026 30.3 856 25.28 -0.5 31 47 -10.6 12.9 0 0
12:18 1026 30.3 856 25.28 -0.8 30.6 47 -10.7 12.7 0 0
12:19 1026 30.3 856 25.28 -1 30.3 47 -10.8 12.5 0 0
12:20 1026 30.3 856 25.28 -1.1 30 49 -10.4 13.2 0 0
12:21 1026 30.3 856 25.28 -1.3 29.6 51 -10.2 13.6 0 0
12:22 1026 30.3 855 25.25 -1.4 29.4 51 -10.2 13.6 0 0
12:23 1026 30.3 855 25.25 -1.5 29.2 53 -10 14.1 0 0
12:24 1026 30.3 855 25.25 -1.7 29 54 -9.9 14.2 0 0
12:25 1026 30.3 855 25.25 -1.7 28.9 54 -9.8 14.4 0 0
12:26 1026 30.3 855 25.25 -1.7 28.9 56 -9.5 14.9 0 0
12:27 1026 30.3 856 25.28 -1.7 28.9 55 -9.7 14.6 0 0
12:28 1026 30.3 856 25.28 -1.6 29.1 55 -9.6 14.6 0 0
12:29 1026 30.3 856 25.28 -1.6 29 55 -9.5 14.8 0 0
12:30 1026 30.3 856 25.28 -1.7 29 54 -9.7 14.5 0 0
12:31 1026 30.3 856 25.28 -1.7 28.9 52 -10.3 13.5 0 0
12:32 1026 30.3 856 25.28 -1.7 29 53 -10 14 0 0
12:33 1026 30.3 856 25.28 -1.6 29.1 52 -10.3 13.5 0 0
12:34 1026 30.3 856 25.28 -1.5 29.2 55 -9.5 14.8 0 0
12:35 1026 30.3 855 25.25 -1.5 29.2 53 -9.8 14.3 0 0
12:36 1026 30.3 855 25.25 -1.5 29.4 54 -9.7 14.5 0 0
12:37 1026 30.3 855 25.25 -1.4 29.5 55 -9.4 15.1 0 0
12:38 1026 30.3 855 25.25 -1.3 29.7 55 -9.3 15.2 0 0
12:39 1026 30.3 855 25.25 -1.3 29.7 53 -9.7 14.5 0 0
12:40 1026 30.3 855 25.25 -1.3 29.7 57 -8.7 16.3 0 0
12:41 1026 30.3 855 25.25 -1.3 29.6 56 -9 15.7 0 0
12:42 1026 30.3 855 25.25 -1.3 29.7 55 -9.1 15.6 0 0
12:43 1026 30.3 855 25.25 -1.1 30 57 -8.7 16.3 0 0
12:44 1026 30.3 855 25.25 -1 30.3 56 -8.7 16.3 0 0
12:45 1026 30.3 855 25.25 -0.8 30.5 57 -8.4 17 0 0
12:46 1026 30.3 855 25.25 -0.8 30.6 56 -8.5 16.6 0 0
12:47 1026 30.3 855 25.25 -0.8 30.5 58 -8.1 17.4 0 0
12:48 1026 30.3 855 25.25 -0.9 30.3 57 -8.4 16.9 0 0
12:49 1026 30.3 855 25.25 -1 30.2 55 -8.9 15.9 0 0
12:50 1026 30.3 855 25.25 -0.9 30.3 53 -9.3 15.3 0 0
12:51 1026 30.3 855 25.25 -0.8 30.6 54 -8.9 16 0 0
12:52 1026 30.3 855 25.25 -0.7 30.8 56 -8.5 16.8 0 0
12:53 1026 30.3 855 25.25 -0.6 30.9 56 -8.4 16.9 0 0
12:54 1026 30.3 855 25.25 -0.5 31 55 -8.6 16.5 0 0
12:55 1026 30.3 855 25.25 -0.4 31.2 53 -9 15.8 0 0
12:56 1026 30.3 855 25.25 -0.2 31.6 52 -8.9 16 0 0
12:57 1026 30.3 855 25.25 -0 31.9 52 -8.8 16.2 0 0
12:58 1026 30.3 855 25.25 0.2 32.4 52 -8.4 16.9 0 0
12:59 1026 30.3 855 25.25 0.5 33 52 -8.2 17.2 0 0
13:00 1026 30.3 855 25.25 0.9 33.7 54 -7.5 18.6 0 0
13:01 1026 30.3 855 25.25 1.2 34.2 51 -7.9 17.8 0 0
13:02 1026 30.3 855 25.25 1.5 34.7 49 -8.2 17.3 0 0
13:03 1026 30.3 855 25.25 1.6 34.9 48 -8.3 17.1 0 0
13:04 1026 30.3 855 25.25 1.8 35.2 46 -8.5 16.7 0 0
13:05 1026 30.3 855 25.25 2 35.7 47 -8 17.6 0 0
13:06 1026 30.3 855 25.25 2.3 36.2 45 -8.5 16.8 0 0
13:07 1026 30.3 855 25.25 2.7 36.8 45 -8.1 17.4 0 0
13:08 1026 30.3 855 25.25 2.9 37.2 46 -7.7 18.2 0 0
13:09 1026 30.3 855 25.25 2.8 37 47 -7.6 18.4 0 0
13:10 1026 30.3 855 25.25 2.4 36.4 49 -7.3 18.8 0 0
13:11 1026 30.3 855 25.25 2.1 35.8 48 -7.7 18.2 0 0
13:12 1026 30.3 855 25.25 2 35.5 50 -7.5 18.5 0 0
13:13 1026 30.3 855 25.25 1.9 35.4 48 -7.9 17.7 0 0
13:14 1026 30.3 855 25.25 1.9 35.5 50 -7.3 18.8 0 0
13:15 1026 30.3 855 25.25 2.1 35.7 49 -7.5 18.5 0 0
13:16 1026 30.3 855 25.25 2.2 36 45 -8.5 16.7 0 0
13:17 1026 30.3 855 25.25 2.3 36.1 48 -7.8 18 0 0
13:18 1026 30.3 855 25.25 2.4 36.3 49 -7.3 18.8 0 0
13:19 1026 30.3 855 25.25 2.4 36.4 46 -8.2 17.3 0 0
13:20 1026 30.3 855 25.25 2.5 36.5 49 -7.3 18.9 0 0
13:21 1026 30.3 855 25.25 2.6 36.7 45 -8.2 17.2 0 0
13:22 1026 30.3 855 25.25 2.6 36.7 47 -7.5 18.5 0 0
13:23 1026 30.3 855 25.25 2.7 36.9 47 -7.4 18.6 0 0
13:24 1026 30.3 855 25.25 2.8 37 48 -7.1 19.2 0 0
13:25 1026 30.3 855 25.25 2.8 37.1 50 -6.6 20.1 0 0
13:26 1026 30.3 855 25.25 3 37.3 46 -7.4 18.6 0 0
13:27 1026 30.3 855 25.25 3 37.4 47 -7.1 19.2 0 0
13:28 1026 30.3 855 25.25 3.2 37.7 49 -6.5 20.3 0 0
13:29 1026 30.3 855 25.25 3.2 37.8 50 -6.3 20.7 0 0
13:30 1026 30.3 855 25.25 3.2 37.7 49 -6.4 20.4 0 0
13:31 1026 30.3 855 25.25 3.1 37.6 50 -6.2 20.8 0 0
13:32 1026 30.3 855 25.25 3.1 37.6 51 -6 21.2 0 0
13:33 1026 30.3 855 25.25 3.2 37.7 53 -5.5 22 0 0
13:34 1026 30.3 855 25.25 3.2 37.8 52 -5.6 21.9 0 0
13:35 1026 30.3 855 25.25 3.3 38 51 -5.8 21.6 0 0
13:36 1026 30.3 855 25.25 3.3 38 53 -5.3 22.4 0 0
13:37 1026 30.3 855 25.25 3.4 38 54 -5.1 22.7 0 0
13:38 1026 30.3 855 25.25 3.4 38.1 52 -5.6 21.9 0 0
13:39 1026 30.3 855 25.25 3.3 38 52 -5.7 21.8 0 0
13:40 1026 30.3 855 25.25 3.3 37.9 52 -5.8 21.6 0 0
13:41 1026 30.3 855 25.25 3.3 37.9 52 -5.7 21.7 0 0
13:42 1026 30.3 855 25.25 3.4 38.1 50 -6 21.2 0 0
13:43 1026 30.3 855 25.25 3.4 38.1 51 -5.9 21.3 0 0
13:44 1026 30.3 855 25.25 3.3 38 51 -5.8 21.5 0 0
13:45 1026 30.3 855 25.25 3.3 38 53 -5.3 22.4 0 0
13:46 1026 30.3 855 25.25 3.4 38.1 49 -6.4 20.5 0 0
13:47 1026 30.3 855 25.25 3.4 38.2 50 -6.1 21 0 0
13:48 1026 30.3 855 25.25 3.4 38.2 47 -6.7 19.9 0 0
13:49 1026 30.3 855 25.25 3.5 38.3 46 -7.2 19.1 0 0
13:50 1026 30.3 855 25.25 3.6 38.5 44 -7.4 18.7 0 0
13:51 1026 30.3 855 25.25 3.6 38.5 45 -7.3 18.9 0 0
13:52 1026 30.3 855 25.25 3.6 38.4 44 -7.7 18.2 0 0
13:53 1026 30.3 855 25.25 3.5 38.3 44 -7.7 18.2 0 0
13:54 1026 30.3 855 25.25 3.5 38.3 46 -7.2 19 0 0
13:55 1026 30.3 855 25.25 3.5 38.4 45 -7.4 18.8 0 0
13:56 1026 30.3 855 25.25 3.6 38.5 45 -7.3 18.8 0 0
13:57 1026 30.3 855 25.25 3.6 38.6 44 -7.6 18.3 0 0
13:58 1026 30.3 855 25.25 3.8 38.8 43 -7.5 18.5 0 0
13:59 1026 30.3 855 25.25 3.9 39 43 -7.7 18.2 0 0
14:00 1026 30.3 855 25.25 3.9 39 43 -7.6 18.3 0 0
14:01 1025 30.27 855 25.25 3.9 39.1 45 -7.1 19.3 0 0
14:02 1025 30.27 855 25.25 3.9 39.1 45 -7 19.4 0 0
14:03 1025 30.27 855 25.25 3.9 39 44 -7.4 18.7 0 0
14:04 1025 30.27 855 25.25 3.8 38.8 43 -7.6 18.3 0 0
14:05 1025 30.27 855 25.25 3.6 38.5 43 -7.9 17.8 0 0
14:06 1025 30.27 855 25.25 3.5 38.2 41 -8.5 16.7 0 0
14:07 1025 30.27 855 25.25 3.4 38.1 42 -8.5 16.7 0 0
14:08 1025 30.27 855 25.25 3.3 38 41 -8.6 16.6 0 0
14:09 1025 30.27 855 25.25 3.4 38.1 42 -8.3 17 0 0
14:10 1025 30.27 855 25.25 3.5 38.3 41 -8.5 16.7 0 0
14:11 1025 30.27 855 25.25 3.6 38.4 40 -8.7 16.4 0 0
14:12 1025 30.27 855 25.25 3.7 38.6 46 -6.9 19.6 0 0
14:13 1025 30.27 855 25.25 3.7 38.6 41 -8.3 17 0 0
14:14 1025 30.27 855 25.25 3.7 38.7 39 -8.9 15.9 0 0
14:15 1025 30.27 855 25.25 3.7 38.7 40 -8.7 16.3 0 0
14:16 1025 30.27 855 25.25 3.7 38.6 41 -8.4 16.9 0 0
14:17 1025 30.27 855 25.25 3.7 38.7 40 -8.7 16.3 0 0
14:18 1025 30.27 855 25.25 3.7 38.6 39 -8.9 16 0 0
14:19 1025 30.27 855 25.25 3.7 38.6 40 -8.6 16.5 0 0
14:20 1025 30.27 855 25.25 3.7 38.6 40 -8.7 16.4 0 0
14:21 1025 30.27 855 25.25 3.7 38.6 41 -8.3 17 0 0
14:22 1025 30.27 855 25.25 3.7 38.6 40 -8.7 16.3 0 0
14:23 1025 30.27 854 25.22 3.6 38.5 40 -8.6 16.5 0 0
14:24 1025 30.27 855 25.25 3.5 38.3 39 -9.1 15.6 0 0
14:25 1025 30.27 854 25.22 3.4 38.1 39 -9.2 15.5 0 0
14:26 1025 30.27 854 25.22 3.3 37.9 38 -9.6 14.8 0 0
14:27 1025 30.27 854 25.22 3.2 37.8 40 -9.3 15.3 0 0
14:28 1025 30.27 854 25.22 3.1 37.6 37 -10.2 13.7 0 0
14:29 1025 30.27 854 25.22 3.1 37.6 37 -10.3 13.5 0 0
14:30 1025 30.27 854 25.22 3.1 37.6 36 -10.6 13 0 0
14:31 1025 30.27 854 25.22 3.2 37.7 36 -10.5 13.1 0 0
14:32 1025 30.27 854 25.22 3.2 37.8 38 -9.9 14.2 0 0
14:33 1025 30.27 854 25.22 3.2 37.8 42 -8.5 16.7 0 0
14:34 1025 30.27 854 25.22 3.2 37.8 46 -7.4 18.6 0 0
14:35 1025 30.27 854 25.22 3.2 37.7 47 -7.2 19.1 0 0
14:36 1025 30.27 854 25.22 3.1 37.6 50 -6.3 20.6 0 0
14:37 1025 30.27 854 25.22 3.1 37.6 50 -6.4 20.5 0 0
14:38 1025 30.27 854 25.22 3.1 37.6 44 -8 17.6 0 0
14:39 1025 30.27 854 25.22 3.1 37.6 45 -7.6 18.2 0 0
14:40 1025 30.27 854 25.22 3.1 37.6 48 -6.8 19.7 0 0
14:41 1025 30.27 854 25.22 3.1 37.5 51 -6.2 20.9 0 0
14:42 1025 30.27 854 25.22 3 37.4 42 -8.8 16.1 0 0
14:43 1025 30.27 854 25.22 3 37.3 34 -11.3 11.7 0 0
14:44 1025 30.27 854 25.22 3 37.4 36 -10.6 13 0 0
14:45 1025 30.27 854 25.22 3.1 37.5 46 -7.5 18.5 0 0
14:46 1025 30.27 854 25.22 3 37.4 47 -7.4 18.8 0 0
14:47 1025 30.27 854 25.22 2.9 37.2 48 -7.1 19.2 0 0
14:48 1025 30.27 854 25.22 2.7 36.9 48 -7.1 19.2 0 0
14:49 1025 30.27 854 25.22 2.6 36.7 48 -7.4 18.7 0 0
14:50 1025 30.27 854 25.22 2.4 36.4 50 -7.1 19.3 0 0
14:51 1025 30.27 854 25.22 2.4 36.2 51 -6.6 20 0 0
14:52 1025 30.27 854 25.22 2.2 36 52 -6.7 20 0 0
14:53 1025 30.27 854 25.22 2.1 35.8 54 -6.2 20.8 0 0
14:54 1025 30.27 854 25.22 1.9 35.5 55 -6.2 20.9 0 0
14:55 1025 30.27 854 25.22 1.8 35.2 56 -6 21.1 0 0
14:56 1025 30.27 854 25.22 1.7 35 58 -5.7 21.7 0 0
14:57 1025 30.27 854 25.22 1.6 34.8 61 -5.1 22.8 0 0
14:58 1025 30.27 854 25.22 1.4 34.5 62 -5.1 22.8 0 0
14:59 1025 30.27 854 25.22 1.2 34.2 61 -5.4 22.3 0 0
15:00 1025 30.27 854 25.22 1.1 34 62 -5.3 22.5 0 0
15:01 1025 30.27 854 25.22 1 33.8 62 -5.5 22.2 0 0
15:02 1025 30.27 854 25.22 0.8 33.5 62 -5.6 21.8 0 0
15:03 1025 30.27 854 25.22 0.7 33.3 62 -5.7 21.7 0 0
15:04 1025 30.27 854 25.22 0.7 33.2 60 -6.2 20.9 0 0
15:05 1025 30.27 854 25.22 0.6 33.1 60 -6.3 20.6 0 0
15:06 1025 30.27 854 25.22 0.6 33.1 58 -6.8 19.8 0 0
15:07 1025 30.27 854 25.22 0.6 33.1 58 -6.8 19.8 0 0
15:08 1025 30.27 854 25.22 0.6 33.1 58 -6.8 19.7 0 0
15:09 1025 30.27 854 25.22 0.6 33.1 58 -6.8 19.8 0 0
15:10 1025 30.27 854 25.22 0.5 33 58 -6.7 19.9 0 0
15:11 1025 30.27 854 25.22 0.4 32.8 59 -6.7 20 0 0
15:12 1025 30.27 854 25.22 0.4 32.8 60 -6.5 20.3 0 0
15:13 1025 30.27 854 25.22 0.4 32.7 59 -6.7 19.9 0 0
15:14 1025 30.27 854 25.22 0.3 32.5 59 -6.8 19.8 0 0
15:15 1025 30.27 854 25.22 0.3 32.5 60 -6.7 20 0 0
15:16 1025 30.27 854 25.22 0.2 32.4 61 -6.5 20.3 0 0
15:17 1025 30.27 854 25.22 0.2 32.4 63 -5.9 21.4 0 0
15:18 1025 30.27 854 25.22 0.2 32.3 64 -5.9 21.4 0 0
15:19 1025 30.27 854 25.22 0.1 32.2 61 -6.5 20.3 0 0
15:20 1025 30.27 854 25.22 0.1 32.2 60 -6.8 19.8 0 0
15:21 1025 30.27 854 25.22 0.2 32.4 58 -7 19.3 0 0
15:22 1025 30.27 854 25.22 0.3 32.6 59 -6.9 19.6 0 0
15:23 1025 30.27 854 25.22 0.4 32.7 58 -6.9 19.5 0 0
15:24 1025 30.27 854 25.22 0.4 32.8 59 -6.7 19.9 0 0
15:25 1025 30.27 854 25.22 0.4 32.7 59 -6.8 19.8 0 0
15:26 1025 30.27 854 25.22 0.4 32.7 57 -7 19.3 0 0
15:27 1025 30.27 854 25.22 0.4 32.8 58 -7 19.4 0 0
15:28 1025 30.27 854 25.22 0.5 32.9 59 -6.6 20.2 0 0
15:29 1025 30.27 854 25.22 0.5 33 60 -6.4 20.5 0 0
15:30 1025 30.27 854 25.22 0.5 32.9 60 -6.3 20.7 0 0
15:31 1025 30.27 854 25.22 0.5 32.8 60 -6.4 20.4 0 0
15:32 1025 30.27 854 25.22 0.4 32.7 59 -6.7 20 0 0
15:33 1025 30.27 854 25.22 0.3 32.5 59 -6.7 19.9 0 0
15:34 1025 30.27 854 25.22 0.3 32.5 59 -6.9 19.5 0 0
15:35 1025 30.27 854 25.22 0.2 32.4 60 -6.7 19.9 0 0
15:36 1025 30.27 854 25.22 0.2 32.3 59 -7 19.4 0 0
15:37 1025 30.27 854 25.22 0.2 32.4 59 -6.9 19.6 0 0
15:38 1025 30.27 854 25.22 0.2 32.4 60 -6.5 20.2 0 0
15:39 1025 30.27 854 25.22 0.1 32.2 62 -6.4 20.6 0 0
15:40 1025 30.27 854 25.22 -0 32 61 -6.6 20.2 0 0
15:41 1025 30.27 854 25.22 -0.1 31.8 62 -6.5 20.3 0 0
15:42 1025 30.27 854 25.22 -0.2 31.7 63 -6.5 20.3 0 0
15:43 1025 30.27 854 25.22 -0.3 31.5 62 -6.7 20 0 0
15:44 1025 30.27 854 25.22 -0.3 31.5 61 -7 19.4 0 0
15:45 1025 30.27 854 25.22 -0.3 31.5 62 -6.7 20 0 0
15:46 1025 30.27 854 25.22 -0.4 31.3 64 -6.5 20.3 0 0
15:47 1025 30.27 854 25.22 -0.5 31.1 61 -7 19.3 0 0
15:48 1025 30.27 854 25.22 -0.4 31.3 61 -7 19.4 0 0
15:49 1025 30.27 854 25.22 -0.4 31.3 62 -6.8 19.8 0 0
15:50 1025 30.27 854 25.22 -0.5 31.2 61 -7.1 19.2 0 0
15:51 1025 30.27 854 25.22 -0.4 31.3 62 -6.9 19.7 0 0
15:52 1025 30.27 854 25.22 -0.5 31.1 62 -6.9 19.5 0 0
15:53 1025 30.27 854 25.22 -0.6 30.9 63 -6.8 19.7 0 0
15:54 1025 30.27 854 25.22 -0.7 30.8 64 -6.7 19.9 0 0
15:55 1025 30.27 854 25.22 -0.7 30.7 64 -6.6 20.1 0 0
15:56 1025 30.27 854 25.22 -0.9 30.5 65 -6.5 20.3 0 0
15:57 1025 30.27 854 25.22 -0.9 30.4 61 -7.5 18.5 0 0
15:58 1025 30.27 854 25.22 -0.6 30.9 55 -8.6 16.5 0 0
15:59 1025 30.27 854 25.22 -0.2 31.6 54 -8.4 16.9 0 0
16:00 1025 30.27 854 25.22 0.1 32.2 50 -9.1 15.6 0 0
16:01 1025 30.27 854 25.22 0.4 32.7 48 -9.3 15.3 0 0
16:02 1025 30.27 854 25.22 0.6 33.1 49 -9.1 15.7 0 0
16:03 1025 30.27 854 25.22 0.8 33.4 46 -9.6 14.8 0 0
16:04 1025 30.27 854 25.22 0.9 33.7 46 -9.4 15.2 0 0
16:05 1025 30.27 854 25.22 1 33.8 46 -9.3 15.2 0 0
16:06 1025 30.27 854 25.22 1.1 34 46 -9.2 15.5 0 0
16:07 1025 30.27 854 25.22 1.1 33.9 47 -8.9 15.9 0 0
16:08 1025 30.27 854 25.22 1 33.8 48 -9 15.9 0 0
16:09 1025 30.27 854 25.22 0.9 33.5 51 -8.2 17.3 0 0
16:10 1025 30.27 854 25.22 0.6 33 51 -8.4 16.9 0 0
16:11 1025 30.27 854 25.22 0.3 32.5 53 -8.2 17.2 0 0
16:12 1025 30.27 854 25.22 -0 32 55 -8.1 17.4 0 0
16:13 1025 30.27 854 25.22 -0.3 31.4 56 -8 17.6 0 0
16:14 1025 30.27 854 25.22 -0.6 30.9 57 -8.2 17.3 0 0
16:15 1025 30.27 854 25.22 -0.8 30.6 58 -8.1 17.4 0 0
16:16 1025 30.27 854 25.22 -0.9 30.4 60 -7.8 18 0 0
16:17 1025 30.27 854 25.22 -1.1 30.1 61 -7.7 18.1 0 0
16:18 1025 30.27 854 25.22 -1.1 30 58 -8.4 16.9 0 0
16:19 1025 30.27 854 25.22 -0.9 30.4 57 -8.4 17 0 0
16:20 1025 30.27 854 25.22 -0.8 30.6 60 -7.6 18.3 0 0
16:21 1025 30.27 854 25.22 -1 30.2 60 -7.8 18 0 0
16:22 1025 30.27 854 25.22 -1.2 29.8 60 -8 17.6 0 0
16:23 1025 30.27 854 25.22 -1.3 29.6 61 -7.9 17.9 0 0
16:24 1025 30.27 854 25.22 -1.5 29.4 62 -7.8 17.9 0 0
16:25 1025 30.27 854 25.22 -1.6 29.1 63 -7.7 18.2 0 0
16:26 1025 30.27 854 25.22 -1.9 28.7 65 -7.6 18.4 0 0
16:27 1025 30.27 854 25.22 -2 28.4 64 -8 17.6 0 0
16:28 1025 30.27 854 25.22 -1.9 28.6 63 -8.1 17.4 0 0
16:29 1025 30.27 854 25.22 -1.9 28.7 62 -8.2 17.2 0 0
16:30 1025 30.27 854 25.22 -1.8 28.7 61 -8.3 17 0 0
16:31 1025 30.27 854 25.22 -1.8 28.8 62 -8.2 17.3 0 0
16:32 1025 30.27 854 25.22 -1.7 28.9 61 -8.3 17.1 0 0
16:33 1025 30.27 854 25.22 -1.7 28.9 62 -8.2 17.3 0 0
16:34 1025 30.27 854 25.22 -1.8 28.7 60 -8.6 16.6 0 0
16:35 1025 30.27 854 25.22 -1.7 28.9 59 -8.8 16.2 0 0
16:36 1025 30.27 854 25.22 -1.5 29.2 57 -9.1 15.6 0 0
16:37 1025 30.27 854 25.22 -1.4 29.5 58 -8.7 16.4 0 0
16:38 1025 30.27 854 25.22 -1.5 29.3 60 -8.4 16.9 0 0
16:39 1025 30.27 854 25.22 -1.6 29 59 -8.6 16.5 0 0
16:40 1025 30.27 854 25.22 -1.8 28.8 60 -8.6 16.5 0 0
16:41 1025 30.27 854 25.22 -1.9 28.6 59 -8.9 16 0 0
16:42 1025 30.27 854 25.22 -1.8 28.7 61 -8.5 16.7 0 0
16:43 1025 30.27 854 25.22 -1.9 28.6 61 -8.5 16.7 0 0
16:44 1025 30.27 854 25.22 -1.9 28.6 62 -8.3 17.1 0 0
16:45 1025 30.27 854 25.22 -2 28.4 61 -8.6 16.5 0 0
16:46 1025 30.27 854 25.22 -2 28.5 61 -8.4 16.9 0 0
16:47 1025 30.27 854 25.22 -2.1 28.3 61 -8.6 16.5 0 0
16:48 1025 30.27 854 25.22 -2.2 28.1 61 -8.7 16.4 0 0
16:49 1025 30.27 854 25.22 -2.2 28.1 61 -8.7 16.4 0 0
16:50 1025 30.27 854 25.22 -2.1 28.1 54 -10.1 13.7 0 0
16:51 1025 30.27 854 25.22 -1.8 28.8 50 -10.9 12.5 0 0
16:52 1025 30.27 854 25.22 -1.2 29.8 49 -10.7 12.8 0 0
16:53 1025 30.27 854 25.22 -0.9 30.4 48 -10.6 12.9 0 0
16:54 1025 30.27 854 25.22 -0.7 30.7 46 -11.1 12.1 0 0
16:55 1025 30.27 854 25.22 -0.5 31.1 45 -11.1 12 0 0
16:56 1025 30.27 854 25.22 -0.3 31.4 44 -11.3 11.6 0 0
16:57 1025 30.27 854 25.22 -0.2 31.7 42 -11.6 11 0 0
16:58 1025 30.27 854 25.22 -0 32 42 -11.4 11.4 0 0
16:59 1025 30.27 854 25.22 -0 32 42 -11.3 11.6 0 0
17:00 1025 30.27 854 25.22 -0 32 41 -11.8 10.7 0 0
17:01 1025 30.27 854 25.22 0 32 46 -10.3 13.4 0 0
17:02 1025 30.27 854 25.22 -0.3 31.5 48 -10.1 13.8 0 0
17:03 1025 30.27 854 25.22 -0.7 30.7 48 -10.3 13.4 0 0
17:04 1025 30.27 854 25.22 -1.1 30.1 53 -9.5 14.8 0 0
17:05 1024 30.24 854 25.22 -1.5 29.3 52 -10.1 13.8 0 0
17:06 1024 30.24 854 25.22 -1.5 29.2 49 -10.9 12.3 0 0
17:07 1025 30.27 854 25.22 -1.3 29.7 45 -11.7 10.9 0 0
17:08 1024 30.24 854 25.22 -0.9 30.4 46 -11.2 11.9 0 0
17:09 1024 30.24 854 25.22 -0.7 30.8 47 -10.6 12.9 0 0
17:10 1024 30.24 854 25.22 -0.9 30.5 53 -9.3 15.2 0 0
17:11 1024 30.24 854 25.22 -1.4 29.4 54 -9.6 14.8 0 0
17:12 1024 30.24 854 25.22 -1.8 28.9 55 -9.7 14.6 0 0
17:13 1024 30.24 854 25.22 -1.9 28.5 56 -9.5 14.9 0 0
17:14 1024 30.24 854 25.22 -2.2 28.1 57 -9.6 14.7 0 0
17:15 1024 30.24 854 25.22 -2.4 27.6 59 -9.3 15.3 0 0
17:16 1024 30.24 854 25.22 -2.8 27 61 -9.2 15.5 0 0
17:17 1024 30.24 854 25.22 -3 26.7 62 -9.2 15.5 0 0
17:18 1024 30.24 854 25.22 -3.1 26.5 62 -9.3 15.2 0 0
17:19 1024 30.24 854 25.22 -3.2 26.3 62 -9.4 15.1 0 0
17:20 1024 30.24 854 25.22 -3.1 26.3 62 -9.4 15.1 0 0
17:21 1024 30.24 854 25.22 -3.2 26.3 62 -9.5 15 0 0
17:22 1024 30.24 854 25.22 -3.2 26.3 62 -9.4 15 0 0
17:23 1024 30.24 854 25.22 -3.2 26.2 62 -9.5 15 0 0
17:24 1024 30.24 854 25.22 -3.2 26.3 61 -9.6 14.8 0 0
17:25 1024 30.24 854 25.22 -3.1 26.4 61 -9.5 14.8 0 0
17:26 1024 30.24 854 25.22 -3.2 26.2 63 -9.3 15.2 0 0
17:27 1024 30.24 854 25.22 -3.4 25.9 63 -9.5 15 0 0
17:28 1024 30.24 854 25.22 -3.5 25.7 63 -9.5 14.9 0 0
17:29 1024 30.24 854 25.22 -3.6 25.5 64 -9.6 14.7 0 0
17:30 1024 30.24 854 25.22 -3.6 25.5 63 -9.7 14.6 0 0
17:31 1024 30.24 854 25.22 -3.5 25.6 61 -10 14 0 0
17:32 1024 30.24 854 25.22 -3.4 25.8 61 -9.9 14.2 0 0
17:33 1024 30.24 854 25.22 -3.4 25.9 60 -10.1 13.9 0 0
17:34 1024 30.24 854 25.22 -3.4 25.9 60 -10.1 13.9 0 0
17:35 1024 30.24 854 25.22 -3.4 25.8 60 -10.2 13.6 0 0
17:36 1024 30.24 854 25.22 -3.4 25.8 60 -10 13.9 0 0
17:37 1024 30.24 854 25.22 -3.5 25.8 62 -9.8 14.4 0 0
17:38 1024 30.24 854 25.22 -3.6 25.5 62 -9.8 14.3 0 0
17:39 1024 30.24 854 25.22 -3.7 25.4 61 -10 13.9 0 0
17:40 1024 30.24 854 25.22 -3.6 25.6 61 -10.1 13.8 0 0
17:41 1024 30.24 854 25.22 -3.5 25.8 57 -10.8 12.6 0 0
17:42 1024 30.24 854 25.22 -3.2 26.3 57 -10.4 13.2 0 0
17:43 1024 30.24 854 25.22 -3.1 26.5 58 -10.2 13.7 0 0
17:44 1024 30.24 854 25.22 -3.1 26.5 58 -10.2 13.6 0 0
17:45 1024 30.24 854 25.22 -3.1 26.4 58 -10.2 13.6 0 0
17:46 1024 30.24 854 25.22 -3.1 26.4 58 -10.3 13.4 0 0
17:47 1024 30.24 854 25.22 -3.2 26.3 57 -10.4 13.2 0 0
17:48 1024 30.24 853 25.19 -3.2 26.3 57 -10.5 13.2 0 0
17:49 1024 30.24 854 25.22 -3.1 26.4 56 -10.6 12.8 0 0
17:50 1024 30.24 853 25.19 -3.1 26.5 55 -10.8 12.5 0 0
17:51 1024 30.24 854 25.22 -3 26.7 54 -11.1 12 0 0
17:52 1024 30.24 854 25.22 -2.7 27.1 52 -11.3 11.7 0 0
17:53 1024 30.24 853 25.19 -2.6 27.3 53 -10.9 12.3 0 0
17:54 1024 30.24 854 25.22 -2.6 27.3 54 -10.8 12.6 0 0
17:55 1024 30.24 854 25.22 -2.7 27.2 54 -10.8 12.6 0 0
17:56 1024 30.24 853 25.19 -2.7 27.2 53 -11 12.3 0 0
17:57 1024 30.24 853 25.19 -2.6 27.4 50 -11.7 10.9 0 0
17:58 1024 30.24 853 25.19 -2.4 27.8 51 -11.1 12 0 0
17:59 1024 30.24 853 25.19 -2.4 27.6 54 -10.5 13.1 0 0
18:00 1024 30.24 853 25.19 -2.7 27.2 54 -10.8 12.6 0 0
18:01 1024 30.24 853 25.19 -2.7 27.1 51 -11.6 11.2 0 0
18:02 1024 30.24 853 25.19 -2.3 27.8 44 -13 8.5 0 0
18:03 1024 30.24 853 25.19 -1.7 28.9 45 -12.1 10.3 0 0
18:04 1024 30.24 853 25.19 -1.7 28.9 49 -11.1 12.1 0 0
18:05 1024 30.24 853 25.19 -2 28.4 51 -10.8 12.5 0 0
18:06 1024 30.24 853 25.19 -2.2 28 50 -11.4 11.6 0 0
18:07 1024 30.24 853 25.19 -2.2 28.1 49 -11.5 11.3 0 0
18:08 1024 30.24 853 25.19 -2.2 28.1 51 -11.1 12.1 0 0
18:09 1024 30.24 853 25.19 -2.4 27.7 47 -12.1 10.1 0 0
18:10 1024 30.24 853 25.19 -2.2 28.1 48 -11.9 10.6 0 0
18:11 1024 30.24 854 25.22 -1.8 28.8 44 -12.4 9.7 0 0
18:12 1024 30.24 854 25.22 -1.6 29.2 41 -13.1 8.4 0 0
18:13 1024 30.24 854 25.22 -1.3 29.7 40 -13.1 8.3 0 0
18:14 1024 30.24 854 25.22 -1.1 30.1 44 -11.7 10.9 0 0
18:15 1024 30.24 854 25.22 -1.3 29.7 45 -11.6 11 0 0
18:16 1024 30.24 854 25.22 -1.5 29.3 47 -11.4 11.5 0 0
18:17 1024 30.24 854 25.22 -1.6 29.1 43 -12.7 9.2 0 0
18:18 1024 30.24 854 25.22 -1.3 29.6 43 -12.3 9.9 0 0
18:19 1024 30.24 854 25.22 -1.3 29.7 44 -12 10.4 0 0
18:20 1024 30.24 854 25.22 -1.5 29.3 45 -12 10.5 0 0
18:21 1024 30.24 854 25.22 -1.6 29.1 47 -11.4 11.4 0 0
18:22 1024 30.24 854 25.22 -1.7 28.9 40 -13.8 7.2 0 0
18:23 1024 30.24 854 25.22 -1.3 29.7 37 -14.4 6.2 0 0
18:24 1024 30.24 854 25.22 -0.7 30.8 34 -14.5 5.8 0 0
18:25 1024 30.24 854 25.22 -0.1 31.8 33 -14.8 5.4 0 0
18:26 1024 30.24 854 25.22 0.2 32.4 36 -13.3 8.1 0 0
18:27 1024 30.24 854 25.22 0 32 43 -11 12.2 0 0
18:28 1024 30.24 854 25.22 -0.8 30.5 44 -11.6 11.1 0 0
18:29 1024 30.24 854 25.22 -1.5 29.4 50 -10.6 12.9 0 0
18:30 1025 30.27 854 25.22 -2 28.5 47 -11.8 10.7 0 0
18:31 1025 30.27 854 25.22 -2 28.4 42 -13.2 8.2 0 0
18:32 1024 30.24 854 25.22 -1.6 29.2 44 -12.2 10.1 0 0
18:33 1024 30.24 854 25.22 -1.3 29.6 45 -11.8 10.8 0 0
18:34 1024 30.24 854 25.22 -1.3 29.7 46 -11.5 11.3 0 0
18:35 1024 30.24 854 25.22 -1.3 29.6 43 -12.5 9.6 0 0
18:36 1024 30.24 854 25.22 -1.1 30.1 38 -13.8 7.2 0 0
18:37 1024 30.24 854 25.22 -0.6 30.9 36 -14.1 6.6 0 0
18:38 1024 30.24 854 25.22 -0.1 31.9 34 -14 6.8 0 0
18:39 1024 30.24 854 25.22 0.3 32.5 39 -12.2 10.1 0 0
18:40 1024 30.24 854 25.22 -0.2 31.7 46 -10.4 13.3 0 0
18:41 1024 30.24 854 25.22 -1.2 29.9 44 -11.8 10.7 0 0
18:42 1024 30.24 854 25.22 -1.3 29.6 41 -13 8.6 0 0
18:43 1024 30.24 854 25.22 -1 30.2 37 -13.9 7 0 0
18:44 1024 30.24 854 25.22 -0.5 31.1 35 -14.3 6.3 0 0
18:45 1024 30.24 854 25.22 -0.1 31.9 35 -13.7 7.4 0 0
18:46 1024 30.24 854 25.22 0.2 32.4 36 -13.3 8.1 0 0
18:47 1024 30.24 854 25.22 0.4 32.6 36 -13 8.6 0 0
18:48 1024 30.24 854 25.22 0.2 32.4 38 -12.6 9.3 0 0
18:49 1024 30.24 854 25.22 0 32.1 38 -12.6 9.2 0 0
18:50 1024 30.24 854 25.22 0 32.1 39 -12.4 9.7 0 0
18:51 1024 30.24 854 25.22 0.1 32.1 38 -12.5 9.4 0 0
18:52 1024 30.24 854 25.22 0.1 32.1 38 -12.7 9.1 0 0
18:53 1024 30.24 854 25.22 0 32 40 -12.1 10.2 0 0
18:54 1024 30.24 854 25.22 -0.2 31.7 40 -12.2 10.1 0 0
18:55 1024 30.24 854 25.22 -0.3 31.4 43 -11.6 11.2 0 0
18:56 1024 30.24 854 25.22 -0.5 31.1 42 -11.9 10.5 0 0
18:57 1024 30.24 854 25.22 -0.5 31.1 41 -12.1 10.3 0 0
18:58 1024 30.24 854 25.22 -0.3 31.4 40 -12.4 9.7 0 0
18:59 1024 30.24 854 25.22 -0.2 31.7 42 -11.6 11.2 0 0
19:00 1024 30.24 854 25.22 -0.4 31.4 44 -11.2 11.8 0 0
19:01 1024 30.24 854 25.22 -0.7 30.8 45 -11.3 11.7 0 0
19:02 1024 30.24 854 25.22 -0.7 30.7 42 -12 10.4 0 0
19:03 1024 30.24 854 25.22 -0.6 30.9 43 -11.7 10.9 0 0
19:04 1024 30.24 853 25.19 -0.5 31.1 39 -12.8 9 0 0
19:05 1024 30.24 853 25.19 -0.2 31.6 40 -12.3 9.9 0 0
19:06 1024 30.24 853 25.19 -0.2 31.7 41 -11.9 10.6 0 0
19:07 1024 30.24 853 25.19 -0.3 31.4 43 -11.4 11.4 0 0
19:08 1024 30.24 853 25.19 -0.5 31 43 -11.7 10.9 0 0
19:09 1024 30.24 853 25.19 -0.5 31.1 42 -11.9 10.6 0 0
19:10 1024 30.24 854 25.22 -0.4 31.2 41 -12 10.4 0 0
19:11 1024 30.24 854 25.22 -0.3 31.5 42 -11.8 10.7 0 0
19:12 1024 30.24 854 25.22 -0.3 31.5 44 -11.1 12 0 0
19:13 1024 30.24 853 25.19 -0.4 31.3 43 -11.6 11.2 0 0
19:14 1024 30.24 853 25.19 -0.5 31.1 45 -11.1 12 0 0
19:15 1024 30.24 853 25.19 -0.7 30.8 46 -10.9 12.4 0 0
19:16 1024 30.24 853 25.19 -0.9 30.4 47 -11 12.3 0 0
19:17 1024 30.24 853 25.19 -1 30.1 47 -10.9 12.4 0 0
19:18 1024 30.24 853 25.19 -1.1 30 47 -11 12.1 0 0
19:19 1024 30.24 853 25.19 -1.1 30 46 -11.2 11.8 0 0
19:20 1024 30.24 853 25.19 -1 30.1 46 -11.4 11.5 0 0
19:21 1024 30.24 853 25.19 -1 30.1 45 -11.5 11.4 0 0
19:22 1024 30.24 853 25.19 -1 30.2 46 -11.1 11.9 0 0
19:23 1024 30.24 853 25.19 -1 30.2 45 -11.5 11.4 0 0
19:24 1024 30.24 853 25.19 -1 30.2 45 -11.5 11.3 0 0
19:25 1024 30.24 853 25.19 -0.9 30.4 44 -11.7 11 0 0
19:26 1024 30.24 854 25.22 -0.8 30.6 43 -11.8 10.8 0 0
19:27 1024 30.24 854 25.22 -0.7 30.7 43 -11.8 10.8 0 0
19:28 1024 30.24 853 25.19 -0.7 30.8 42 -12 10.5 0 0
19:29 1024 30.24 853 25.19 -0.6 30.9 43 -11.6 11.1 0 0
19:30 1024 30.24 853 25.19 -0.7 30.8 44 -11.4 11.5 0 0
19:31 1024 30.24 854 25.22 -0.8 30.5 44 -11.6 11.1 0 0
19:32 1024 30.24 854 25.22 -0.8 30.6 44 -11.5 11.3 0 0
19:33 1024 30.24 853 25.19 -0.8 30.6 43 -11.8 10.8 0 0
19:34 1024 30.24 853 25.19 -0.8 30.6 42 -12.2 10.1 0 0
19:35 1024 30.24 853 25.19 -0.7 30.8 41 -12.5 9.5 0 0
19:36 1024 30.24 853 25.19 -0.5 31.1 41 -12.1 10.2 0 0
19:37 1024 30.24 853 25.19 -0.5 31 44 -11.2 11.8 0 0
19:38 1024 30.24 854 25.22 -0.9 30.5 44 -11.6 11.2 0 0
19:39 1024 30.24 853 25.19 -1 30.2 44 -11.7 11 0 0
19:40 1024 30.24 853 25.19 -1.1 30.1 45 -11.6 11.2 0 0
19:41 1024 30.24 854 25.22 -1.1 29.9 45 -11.6 11.1 0 0
19:42 1024 30.24 854 25.22 -1.2 29.9 44 -11.9 10.7 0 0
19:43 1024 30.24 854 25.22 -1 30.1 43 -12.2 10 0 0
19:44 1024 30.24 854 25.22 -0.9 30.3 43 -11.9 10.5 0 0
19:45 1024 30.24 854 25.22 -0.9 30.3 47 -10.8 12.6 0 0
19:46 1024 30.24 854 25.22 -1.3 29.6 47 -11.2 11.9 0 0
19:47 1024 30.24 854 25.22 -1.5 29.3 47 -11.5 11.3 0 0
19:48 1024 30.24 854 25.22 -1.5 29.2 47 -11.5 11.4 0 0
19:49 1024 30.24 854 25.22 -1.5 29.3 46 -11.8 10.8 0 0
19:50 1024 30.24 854 25.22 -1.4 29.6 47 -11.4 11.5 0 0
19:51 1024 30.24 854 25.22 -1.4 29.5 47 -11.4 11.4 0 0
19:52 1024 30.24 854 25.22 -1.4 29.6 46 -11.4 11.4 0 0
19:53 1024 30.24 854 25.22 -1.4 29.4 47 -11.3 11.7 0 0
19:54 1024 30.24 854 25.22 -1.4 29.4 48 -11.1 11.9 0 0
19:55 1024 30.24 854 25.22 -1.6 29.2 49 -11 12.2 0 0
19:56 1025 30.27 854 25.22 -1.6 29.1 49 -11 12.2 0 0
19:57 1025 30.27 854 25.22 -1.8 28.8 53 -10.3 13.5 0 0
19:58 1025 30.27 854 25.22 -1.9 28.5 52 -10.4 13.2 0 0
19:59 1025 30.27 854 25.22 -1.9 28.6 52 -10.4 13.2 0 0
20:00 1025 30.27 854 25.22 -1.9 28.6 51 -10.7 12.7 0 0
20:01 1025 30.27 854 25.22 -1.9 28.7 49 -11.3 11.7 0 0
20:02 1025 30.27 854 25.22 -1.7 28.9 48 -11.4 11.4 0 0
20:03 1025 30.27 854 25.22 -1.5 29.2 48 -11.3 11.7 0 0
20:04 1025 30.27 854 25.22 -1.5 29.4 47 -11.4 11.4 0 0
20:05 1025 30.27 854 25.22 -1.4 29.5 46 -11.7 11 0 0
20:06 1025 30.27 854 25.22 -1.3 29.7 45 -11.6 11.1 0 0
20:07 1025 30.27 854 25.22 -1.2 29.9 45 -11.7 11 0 0
20:08 1025 30.27 854 25.22 -1.2 29.9 45 -11.7 11 0 0
20:09 1025 30.27 854 25.22 -1.1 30 44 -11.7 10.9 0 0
20:10 1025 30.27 854 25.22 -1.1 30.1 44 -11.8 10.8 0 0
20:11 1025 30.27 854 25.22 -1 30.1 44 -11.7 11 0 0
20:12 1025 30.27 854 25.22 -1 30.2 46 -11.3 11.7 0 0
20:13 1025 30.27 854 25.22 -1 30.2 46 -11.1 12 0 0
20:14 1025 30.27 854 25.22 -1.1 30.1 46 -11.2 11.9 0 0
20:15 1025 30.27 854 25.22 -1.1 30 47 -11 12.1 0 0
20:16 1025 30.27 854 25.22 -1.3 29.7 47 -11.1 12 0 0
20:17 1025 30.27 854 25.22 -1.3 29.6 47 -11.1 11.9 0 0
20:18 1025 30.27 854 25.22 -1.5 29.3 50 -10.6 12.9 0 0
20:19 1025 30.27 854 25.22 -1.9 28.6 50 -10.9 12.3 0 0
20:20 1025 30.27 854 25.22 -2 28.4 50 -11.1 12.1 0 0
20:21 1025 30.27 854 25.22 -2 28.4 50 -11.2 11.9 0 0
20:22 1025 30.27 854 25.22 -2.1 28.2 50 -11.1 12.1 0 0
20:23 1025 30.27 854 25.22 -2.1 28.2 50 -11.2 11.8 0 0
20:24 1025 30.27 854 25.22 -2.1 28.3 48 -11.6 11.1 0 0
20:25 1025 30.27 854 25.22 -1.8 28.7 49 -11.1 12 0 0
20:26 1025 30.27 854 25.22 -1.9 28.5 50 -11 12.2 0 0
20:27 1025 30.27 854 25.22 -2.1 28.3 49 -11.3 11.7 0 0
20:28 1025 30.27 854 25.22 -2 28.5 50 -11.1 11.9 0 0
20:29 1025 30.27 854 25.22 -2 28.4 52 -10.7 12.7 0 0
20:30 1025 30.27 854 25.22 -2.1 28.2 51 -10.8 12.5 0 0
20:31 1025 30.27 854 25.22 -2.1 28.2 50 -11.3 11.7 0 0
20:32 1025 30.27 854 25.22 -1.9 28.5 49 -11.3 11.7 0 0
20:33 1025 30.27 854 25.22 -1.8 28.8 47 -11.6 11.1 0 0
20:34 1025 30.27 854 25.22 -1.5 29.2 46 -11.8 10.7 0 0
20:35 1025 30.27 854 25.22 -1.3 29.7 45 -11.6 11.1 0 0
20:36 1025 30.27 854 25.22 -1.3 29.7 49 -10.7 12.8 0 0
20:37 1025 30.27 854 25.22 -1.6 29.1 51 -10.4 13.3 0 0
20:38 1025 30.27 854 25.22 -2 28.4 51 -10.8 12.6 0 0
20:39 1025 30.27 854 25.22 -2 28.3 51 -10.8 12.5 0 0
20:40 1025 30.27 854 25.22 -2.2 28.1 53 -10.5 13 0 0
20:41 1025 30.27 854 25.22 -2.3 27.8 54 -10.5 13.1 0 0
20:42 1025 30.27 854 25.22 -2.5 27.5 54 -10.5 13 0 0
20:43 1025 30.27 854 25.22 -2.6 27.4 55 -10.3 13.5 0 0
20:44 1025 30.27 854 25.22 -2.7 27.1 56 -10.4 13.3 0 0
20:45 1025 30.27 854 25.22 -2.9 26.8 57 -10.2 13.6 0 0
20:46 1025 30.27 854 25.22 -3 26.6 58 -10.2 13.6 0 0
20:47 1025 30.27 854 25.22 -3 26.5 58 -10.1 13.8 0 0
20:48 1025 30.27 854 25.22 -3.2 26.2 58 -10.3 13.5 0 0
20:49 1025 30.27 854 25.22 -3.1 26.5 57 -10.4 13.3 0 0
20:50 1025 30.27 854 25.22 -2.9 26.8 57 -10.3 13.4 0 0
20:51 1025 30.27 854 25.22 -2.7 27.1 55 -10.5 13.1 0 0
20:52 1025 30.27 854 25.22 -2.4 27.7 51 -11.1 12 0 0
20:53 1025 30.27 854 25.22 -1.9 28.6 50 -11.1 12 0 0
20:54 1025 30.27 854 25.22 -1.5 29.4 49 -10.9 12.4 0 0
20:55 1025 30.27 854 25.22 -1.2 29.8 48 -10.8 12.5 0 0
20:56 1025 30.27 854 25.22 -1.1 30 49 -10.5 13.1 0 0
20:57 1025 30.27 854 25.22 -1.2 29.8 52 -10 14 0 0
20:58 1025 30.27 854 25.22 -1.6 29.1 53 -10 14.1 0 0
20:59 1025 30.27 854 25.22 -1.9 28.6 53 -10.2 13.7 0 0
21:00 1025 30.27 854 25.22 -2 28.4 54 -10.2 13.7 0 0
21:01 1025 30.27 854 25.22 -2 28.4 54 -10.2 13.7 0 0
21:02 1025 30.27 854 25.22 -2.1 28.3 52 -10.7 12.8 0 0
21:03 1025 30.27 854 25.22 -1.8 28.7 50 -10.9 12.3 0 0
21:04 1025 30.27 854 25.22 -1.6 29.2 49 -10.9 12.3 0 0
21:05 1025 30.27 854 25.22 -1.3 29.6 51 -10.3 13.4 0 0
21:06 1025 30.27 854 25.22 -1.4 29.4 49 -10.9 12.4 0 0
21:07 1025 30.27 854 25.22 -1.3 29.6 48 -10.9 12.4 0 0
21:08 1025 30.27 854 25.22 -1.3 29.7 48 -11 12.1 0 0
21:09 1025 30.27 854 25.22 -1.2 29.9 48 -10.9 12.4 0 0
21:10 1025 30.27 854 25.22 -1.1 30.1 48 -10.6 12.8 0 0
21:11 1025 30.27 854 25.22 -1.1 30 49 -10.4 13.3 0 0
21:12 1025 30.27 854 25.22 -1.3 29.6 50 -10.5 13.2 0 0
21:13 1025 30.27 854 25.22 -1.5 29.4 51 -10.4 13.3 0 0
21:14 1025 30.27 854 25.22 -1.6 29.1 51 -10.5 13.2 0 0
21:15 1025 30.27 854 25.22 -1.7 29 50 -10.7 12.7 0 0
21:16 1025 30.27 854 25.22 -1.6 29 50 -10.7 12.8 0 0
21:17 1025 30.27 854 25.22 -1.6 29.1 49 -10.9 12.4 0 0
21:18 1025 30.27 854 25.22 -1.5 29.3 50 -10.6 12.9 0 0
21:19 1025 30.27 854 25.22 -1.6 29.1 50 -10.7 12.8 0 0
21:20 1025 30.27 854 25.22 -1.7 29 52 -10.3 13.4 0 0
21:21 1025 30.27 854 25.22 -1.9 28.5 52 -10.5 13.1 0 0
21:22 1025 30.27 854 25.22 -1.9 28.5 53 -10.3 13.4 0 0
21:23 1025 30.27 854 25.22 -2.1 28.3 55 -10 14 0 0
21:24 1025 30.27 854 25.22 -2.4 27.7 56 -10 14 0 0
21:25 1025 30.27 854 25.22 -2.6 27.4 57 -9.9 14.1 0 0
21:26 1025 30.27 854 25.22 -2.7 27.2 57 -10 14 0 0
21:27 1025 30.27 854 25.22 -2.7 27.1 58 -9.9 14.2 0 0
21:28 1025 30.27 854 25.22 -2.7 27.1 57 -10.2 13.6 0 0
21:29 1025 30.27 854 25.22 -2.5 27.6 56 -10.1 13.8 0 0
21:30 1025 30.27 854 25.22 -2.4 27.7 55 -10.2 13.6 0 0
21:31 1025 30.27 854 25.22 -2.4 27.7 54 -10.4 13.3 0 0
21:32 1025 30.27 854 25.22 -2.2 28.1 52 -10.7 12.8 0 0
21:33 1025 30.27 854 25.22 -1.9 28.6 52 -10.4 13.3 0 0
21:34 1025 30.27 854 25.22 -1.9 28.6 53 -10.2 13.6 0 0
21:35 1025 30.27 854 25.22 -2.1 28.2 54 -10.2 13.6 0 0
21:36 1025 30.27 854 25.22 -2.3 27.9 55 -10.2 13.7 0 0
21:37 1025 30.27 854 25.22 -2.7 27.1 57 -10.1 13.9 0 0
21:38 1025 30.27 854 25.22 -3.5 25.8 60 -10.1 13.8 0 0
21:39 1025 30.27 854 25.22 -4.1 24.7 64 -10 14 0 0
21:40 1025 30.27 854 25.22 -4.2 24.4 63 -10.2 13.6 0 0
21:41 1025 30.27 854 25.22 -4 24.8 62 -10.2 13.6 0 0
21:42 1025 30.27 854 25.22 -3.8 25.2 62 -10.1 13.9 0 0
21:43 1025 30.27 854 25.22 -3.9 25 63 -9.9 14.2 0 0
21:44 1025 30.27 854 25.22 -4.3 24.3 66 -9.8 14.4 0 0
21:45 1025 30.27 854 25.22 -4.6 23.8 68 -9.6 14.7 0 0
21:46 1025 30.27 854 25.22 -4.8 23.4 69 -9.7 14.6 0 0
21:47 1025 30.27 854 25.22 -5 23.1 70 -9.7 14.6 0 0
21:48 1025 30.27 854 25.22 -5.1 22.8 71 -9.6 14.7 0 0
21:49 1025 30.27 854 25.22 -5.2 22.6 71 -9.7 14.6 0 0
21:50 1025 30.27 854 25.22 -5.2 22.6 71 -9.7 14.6 0 0
21:51 1025 30.27 854 25.22 -5.3 22.4 72 -9.6 14.8 0 0
21:52 1025 30.27 854 25.22 -5.4 22.3 72 -9.6 14.8 0 0
21:53 1025 30.27 854 25.22 -5.2 22.6 71 -9.6 14.7 0 0
21:54 1025 30.27 854 25.22 -5.1 22.9 70 -9.7 14.6 0 0
21:55 1025 30.27 854 25.22 -4.9 23.2 69 -9.7 14.5 0 0
21:56 1025 30.27 854 25.22 -4.5 23.9 66 -9.9 14.1 0 0
21:57 1025 30.27 854 25.22 -4.2 24.5 65 -9.8 14.3 0 0
21:58 1025 30.27 854 25.22 -4 24.9 64 -9.9 14.2 0 0
21:59 1025 30.27 854 25.22 -3.8 25.2 63 -9.9 14.2 0 0
22:00 1025 30.27 854 25.22 -3.7 25.4 63 -9.7 14.6 0 0
22:01 1025 30.27 854 25.22 -3.8 25.2 64 -9.6 14.8 0 0
22:02 1025 30.27 854 25.22 -4 24.7 65 -9.6 14.7 0 0
22:03 1025 30.27 854 25.22 -4.2 24.4 66 -9.6 14.8 0 0
22:04 1025 30.27 854 25.22 -4.3 24.2 65 -9.9 14.1 0 0
22:05 1025 30.27 854 25.22 -4.1 24.6 63 -10.1 13.8 0 0
22:06 1025 30.27 854 25.22 -3.7 25.3 61 -10.1 13.8 0 0
22:07 1025 30.27 854 25.22 -3.3 26 59 -10.3 13.5 0 0
22:08 1025 30.27 854 25.22 -3 26.6 59 -10 14 0 0
22:09 1025 30.27 854 25.22 -3.1 26.3 60 -9.8 14.4 0 0
22:10 1025 30.27 854 25.22 -3.5 25.7 62 -9.9 14.2 0 0
22:11 1025 30.27 854 25.22 -3.8 25.1 62 -10 14.1 0 0
22:12 1025 30.27 854 25.22 -3.9 25 62 -10.1 13.8 0 0
22:13 1025 30.27 854 25.22 -3.9 24.9 64 -9.7 14.5 0 0
22:14 1025 30.27 854 25.22 -4.2 24.5 65 -9.9 14.2 0 0
22:15 1025 30.27 854 25.22 -4.1 24.6 61 -10.5 13.1 0 0
22:16 1025 30.27 854 25.22 -3.4 25.9 55 -11.1 12 0 0
22:17 1025 30.27 854 25.22 -2.6 27.4 52 -11 12.2 0 0
22:18 1025 30.27 854 25.22 -2.2 28 54 -10.4 13.4 0 0
22:19 1025 30.27 854 25.22 -2.3 27.9 55 -10.2 13.6 0 0
22:20 1025 30.27 854 25.22 -2.4 27.7 55 -10.3 13.5 0 0
22:21 1025 30.27 854 25.22 -2.4 27.7 55 -10.3 13.4 0 0
22:22 1025 30.27 854 25.22 -2.4 27.8 52 -10.9 12.4 0 0
22:23 1025 30.27 854 25.22 -2 28.4 49 -11.3 11.6 0 0
22:24 1025 30.27 854 25.22 -1.4 29.4 47 -11.4 11.6 0 0
22:25 1025 30.27 854 25.22 -1 30.2 46 -11.2 11.9 0 0
22:26 1025 30.27 854 25.22 -0.7 30.7 45 -11.1 11.9 0 0
22:27 1025 30.27 854 25.22 -0.6 30.9 47 -10.6 13 0 0
22:28 1025 30.27 854 25.22 -0.9 30.4 49 -10.3 13.4 0 0
22:29 1025 30.27 854 25.22 -1.4 29.5 50 -10.6 12.9 0 0
22:30 1025 30.27 854 25.22 -1.8 28.8 54 -10 14.1 0 0
22:31 1025 30.27 854 25.22 -2.4 27.6 56 -10.1 13.8 0 0
22:32 1025 30.27 854 25.22 -2.8 26.9 57 -10.2 13.6 0 0
22:33 1025 30.27 854 25.22 -2.9 26.8 57 -10.1 13.8 0 0
22:34 1025 30.27 854 25.22 -2.9 26.7 57 -10.2 13.6 0 0
22:35 1025 30.27 854 25.22 -3 26.5 58 -10.1 13.8 0 0
22:36 1025 30.27 854 25.22 -3.4 25.9 60 -10 14 0 0
22:37 1025 30.27 854 25.22 -3.7 25.3 62 -9.9 14.2 0 0
22:38 1025 30.27 854 25.22 -3.9 24.9 64 -9.8 14.3 0 0
22:39 1025 30.27 854 25.22 -4.3 24.3 67 -9.5 14.8 0 0
22:40 1025 30.27 854 25.22 -4.3 24.3 66 -9.8 14.4 0 0
22:41 1025 30.27 854 25.22 -4.5 24 66 -9.8 14.3 0 0
22:42 1025 30.27 854 25.22 -4.7 23.6 68 -9.8 14.4 0 0
22:43 1025 30.27 854 25.22 -4.8 23.4 68 -9.8 14.3 0 0
22:44 1025 30.27 854 25.22 -4.7 23.5 67 -9.9 14.2 0 0
22:45 1025 30.27 854 25.22 -4.6 23.7 67 -9.9 14.3 0 0
22:46 1025 30.27 854 25.22 -4.5 23.9 66 -10 14 0 0
22:47 1025 30.27 854 25.22 -4.3 24.2 65 -9.9 14.2 0 0
22:48 1025 30.27 854 25.22 -4.3 24.2 65 -9.9 14.2 0 0
22:49 1025 30.27 854 25.22 -4.4 24.1 66 -9.8 14.3 0 0
22:50 1025 30.27 854 25.22 -4.4 24.1 66 -9.9 14.3 0 0
22:51 1025 30.27 854 25.22 -4.4 24 66 -9.9 14.1 0 0
22:52 1025 30.27 854 25.22 -4.4 24.1 66 -9.8 14.4 0 0
22:53 1025 30.27 855 25.25 -4.4 24 67 -9.7 14.6 0 0
22:54 1025 30.27 854 25.22 -4.6 23.7 68 -9.7 14.6 0 0
22:55 1025 30.27 855 25.25 -4.7 23.5 68 -9.7 14.5 0 0
22:56 1025 30.27 855 25.25 -4.9 23.2 70 -9.6 14.7 0 0
22:57 1025 30.27 855 25.25 -4.9 23.1 71 -9.5 14.9 0 0
22:58 1025 30.27 855 25.25 -4.8 23.3 69 -9.6 14.7 0 0
22:59 1025 30.27 855 25.25 -4.8 23.4 69 -9.6 14.8 0 0
23:00 1025 30.27 855 25.25 -4.8 23.3 69 -9.6 14.6 0 0
23:01 1025 30.27 855 25.25 -4.9 23.2 69 -9.8 14.4 0 0
23:02 1025 30.27 854 25.22 -4.8 23.4 67 -9.9 14.1 0 0
23:03 1025 30.27 854 25.22 -4.7 23.6 67 -10 14.1 0 0
23:04 1025 30.27 854 25.22 -4.8 23.4 69 -9.7 14.6 0 0
23:05 1025 30.27 854 25.22 -5 23 70 -9.7 14.5 0 0
23:06 1025 30.27 854 25.22 -5 23 69 -9.8 14.4 0 0
23:07 1025 30.27 854 25.22 -4.9 23.2 68 -10 14.1 0 0
23:08 1025 30.27 854 25.22 -4.7 23.6 65 -10.2 13.6 0 0
23:09 1025 30.27 854 25.22 -4.3 24.2 64 -10.2 13.7 0 0
23:10 1025 30.27 854 25.22 -4.1 24.6 62 -10.4 13.4 0 0
23:11 1025 30.27 854 25.22 -3.8 25.2 60 -10.4 13.3 0 0
23:12 1025 30.27 854 25.22 -3.5 25.7 59 -10.4 13.2 0 0
23:13 1025 30.27 854 25.22 -3.3 26.1 58 -10.5 13.1 0 0
23:14 1025 30.27 854 25.22 -3.1 26.4 58 -10.4 13.4 0 0
23:15 1025 30.27 854 25.22 -3.3 26.2 58 -10.4 13.4 0 0
23:16 1025 30.27 854 25.22 -3.4 25.9 59 -10.2 13.7 0 0
23:17 1025 30.27 854 25.22 -3.5 25.6 59 -10.4 13.3 0 0
23:18 1025 30.27 854 25.22 -3.5 25.7 59 -10.4 13.3 0 0
23:19 1025 30.27 855 25.25 -3.6 25.4 60 -10.4 13.3 0 0
23:20 1025 30.27 855 25.25 -3.7 25.4 58 -10.7 12.8 0 0
23:21 1025 30.27 855 25.25 -3.2 26.2 57 -10.6 12.9 0 0
23:22 1025 30.27 855 25.25 -2.9 26.8 55 -10.7 12.7 0 0
23:23 1025 30.27 854 25.22 -2.8 26.9 55 -10.5 13 0 0
23:24 1025 30.27 854 25.22 -3.1 26.4 56 -10.6 12.9 0 0
23:25 1025 30.27 855 25.25 -3.2 26.2 57 -10.6 12.9 0 0
23:26 1025 30.27 855 25.25 -3.4 25.9 58 -10.6 12.9 0 0
23:27 1025 30.27 855 25.25 -3.4 26 56 -10.9 12.4 0 0
23:28 1025 30.27 855 25.25 -3.1 26.4 55 -10.8 12.6 0 0
23:29 1025 30.27 855 25.25 -3.2 26.2 56 -10.7 12.7 0 0
23:30 1025 30.27 855 25.25 -3.5 25.8 57 -10.8 12.6 0 0
23:31 1025 30.27 855 25.25 -3.4 25.8 56 -10.9 12.3 0 0
23:32 1025 30.27 855 25.25 -3.4 25.8 57 -10.9 12.4 0 0
23:33 1025 30.27 855 25.25 -3.6 25.6 58 -10.7 12.7 0 0
23:34 1025 30.27 855 25.25 -3.8 25.1 59 -10.8 12.5 0 0
23:35 1025 30.27 855 25.25 -4.2 24.4 59 -11.1 12 0 0
23:36 1025 30.27 855 25.25 -5.1 22.8 63 -11 12.1 0 0
23:37 1025 30.27 855 25.25 -5.8 21.5 67 -11 12.1 0 0
23:38 1025 30.27 855 25.25 -6 21.1 67 -11.2 11.8 0 0
23:39 1025 30.27 855 25.25 -6.1 21.1 67 -11.2 11.9 0 0
23:40 1025 30.27 855 25.25 -5.9 21.4 66 -11.2 11.8 0 0
23:41 1025 30.27 855 25.25 -5.8 21.6 65 -11.2 11.8 0 0
23:42 1025 30.27 855 25.25 -5.8 21.6 66 -11.2 11.8 0 0
23:43 1025 30.27 855 25.25 -5.7 21.7 65 -11.2 11.8 0 0
23:44 1025 30.27 855 25.25 -5.2 22.6 62 -11.4 11.5 0 0
23:45 1025 30.27 855 25.25 -4.9 23.1 61 -11.3 11.7 0 0
23:46 1025 30.27 855 25.25 -5.2 22.6 64 -11.1 12.1 0 0
23:47 1025 30.27 855 25.25 -5.1 22.8 62 -11.2 11.8 0 0
23:48 1025 30.27 855 25.25 -5.3 22.4 63 -11.2 11.8 0 0
23:49 1025 30.27 855 25.25 -5.6 21.8 64 -11.3 11.6 0 0
23:50 1025 30.27 855 25.25 -6.1 21 66 -11.5 11.3 0 0
23:51 1025 30.27 855 25.25 -6.5 20.3 68 -11.4 11.5 0 0
23:52 1025 30.27 855 25.25 -6.7 19.9 69 -11.4 11.5 0 0
23:53 1025 30.27 855 25.25 -6.5 20.4 68 -11.4 11.6 0 0
23:54 1025 30.27 855 25.25 -5.8 21.6 64 -11.5 11.3 0 0
23:55 1025 30.27 855 25.25 -5.1 22.8 62 -11.3 11.6 0 0
23:56 1025 30.27 855 25.25 -4.7 23.5 60 -11.4 11.5 0 0
23:57 1025 30.27 855 25.25 -4.1 24.6 57 -11.4 11.4 0 0
23:58 1025 30.27 855 25.25 -3.6 25.5 55 -11.4 11.4 0 0
23:59 1025 30.27 855 25.25 -3.2 26.2 54 -11.3 11.7 0 0
24:00 1025 30.27 854 25.22 -2.9 26.8 52 -11.5 11.3 0 0